<?xml version="1.0" encoding="UTF-8" standalone="no" ?>
<gpx xmlns="http://www.topografix.com/GPX/1/1" xmlns:xsi="http://www.w3.org/2001/XMLSchema-instance" xsi:schemaLocation="http://www.topografix.com/GPX/1/1 http://www.topografix.com/GPX/1/1/gpx.xsd" version="1.1" creator="VisuGPX - https://www.visugpx.com">
  <metadata>
    <name>ROQUEBRUNE LES TROIS CROIX 20 08 2019</name>
    <desc><![CDATA[Départ du radier à Roquebrune sur Argens où nous empruntons le GR51 que nous suivons jusqu'à l'intersection qui nous indique le sentier qui monte sur le rocher de Roquebrune aux trois croix où nous avons une superbe vue sur les alentours jusqu'à la mer. Nous redescendons par le même chemin.]]></desc>
  </metadata>
  <trk>
    <name><![CDATA[Activité actuelle: 18 AOU 2019 20:04]]></name>
    <trkseg>
      <trkpt lat="43.44565" lon="6.62013">
        <ele>-32.11</ele>
        <time>2019-08-20T05:30:54Z</time>
      </trkpt>
      <trkpt lat="43.44564" lon="6.62013">
        <ele>-32.06</ele>
        <time>2019-08-20T05:30:56Z</time>
      </trkpt>
      <trkpt lat="43.44569" lon="6.62016">
        <ele>-32.09</ele>
        <time>2019-08-20T05:31:15Z</time>
      </trkpt>
      <trkpt lat="43.4457" lon="6.62014">
        <ele>-32.09</ele>
        <time>2019-08-20T05:31:40Z</time>
      </trkpt>
      <trkpt lat="43.4451" lon="6.6203">
        <ele>-32.09</ele>
        <time>2019-08-20T05:32:05Z</time>
      </trkpt>
      <trkpt lat="43.44462" lon="6.62026">
        <ele>-32.09</ele>
        <time>2019-08-20T05:32:31Z</time>
      </trkpt>
      <trkpt lat="43.44451" lon="6.62019">
        <ele>-32.09</ele>
        <time>2019-08-20T05:32:58Z</time>
      </trkpt>
      <trkpt lat="43.44448" lon="6.62019">
        <ele>-32.09</ele>
        <time>2019-08-20T05:33:17Z</time>
      </trkpt>
      <trkpt lat="43.44447" lon="6.62019">
        <ele>-32.09</ele>
        <time>2019-08-20T05:33:35Z</time>
      </trkpt>
      <trkpt lat="43.44449" lon="6.62018">
        <ele>-32.09</ele>
        <time>2019-08-20T05:33:54Z</time>
      </trkpt>
      <trkpt lat="43.44449" lon="6.62019">
        <ele>-32.09</ele>
        <time>2019-08-20T05:34:14Z</time>
      </trkpt>
      <trkpt lat="43.44445" lon="6.62018">
        <ele>-32.09</ele>
        <time>2019-08-20T05:34:32Z</time>
      </trkpt>
      <trkpt lat="43.44435" lon="6.62017">
        <ele>-32.09</ele>
        <time>2019-08-20T05:34:49Z</time>
      </trkpt>
      <trkpt lat="43.44427" lon="6.62017">
        <ele>-32.13</ele>
        <time>2019-08-20T05:34:54Z</time>
      </trkpt>
      <trkpt lat="43.44411" lon="6.62009">
        <ele>-33.41</ele>
        <time>2019-08-20T05:35:09Z</time>
      </trkpt>
      <trkpt lat="43.44408" lon="6.62003">
        <ele>-33.55</ele>
        <time>2019-08-20T05:35:13Z</time>
      </trkpt>
      <trkpt lat="43.44405" lon="6.61995">
        <ele>-33.63</ele>
        <time>2019-08-20T05:35:19Z</time>
      </trkpt>
      <trkpt lat="43.44397" lon="6.61986">
        <ele>-33.65</ele>
        <time>2019-08-20T05:35:29Z</time>
      </trkpt>
      <trkpt lat="43.44395" lon="6.61972">
        <ele>-33.2</ele>
        <time>2019-08-20T05:35:39Z</time>
      </trkpt>
      <trkpt lat="43.44386" lon="6.61956">
        <ele>-32.92</ele>
        <time>2019-08-20T05:35:54Z</time>
      </trkpt>
      <trkpt lat="43.44381" lon="6.61947">
        <ele>-32.81</ele>
        <time>2019-08-20T05:36:00Z</time>
      </trkpt>
      <trkpt lat="43.44377" lon="6.61939">
        <ele>-32.69</ele>
        <time>2019-08-20T05:36:06Z</time>
      </trkpt>
      <trkpt lat="43.4437" lon="6.61921">
        <ele>-32.53</ele>
        <time>2019-08-20T05:36:19Z</time>
      </trkpt>
      <trkpt lat="43.44369" lon="6.61915">
        <ele>-32.34</ele>
        <time>2019-08-20T05:36:26Z</time>
      </trkpt>
      <trkpt lat="43.44374" lon="6.61904">
        <ele>-31.93</ele>
        <time>2019-08-20T05:36:34Z</time>
      </trkpt>
      <trkpt lat="43.44371" lon="6.61889">
        <ele>-32.33</ele>
        <time>2019-08-20T05:36:46Z</time>
      </trkpt>
      <trkpt lat="43.4437" lon="6.61886">
        <ele>-32.32</ele>
        <time>2019-08-20T05:36:48Z</time>
      </trkpt>
      <trkpt lat="43.44372" lon="6.61879">
        <ele>-32.24</ele>
        <time>2019-08-20T05:36:52Z</time>
      </trkpt>
      <trkpt lat="43.44375" lon="6.61865">
        <ele>-32.21</ele>
        <time>2019-08-20T05:37:01Z</time>
      </trkpt>
      <trkpt lat="43.44375" lon="6.61863">
        <ele>-32.21</ele>
        <time>2019-08-20T05:37:02Z</time>
      </trkpt>
      <trkpt lat="43.44373" lon="6.6184">
        <ele>-31.08</ele>
        <time>2019-08-20T05:37:18Z</time>
      </trkpt>
      <trkpt lat="43.44373" lon="6.61819">
        <ele>-30.58</ele>
        <time>2019-08-20T05:37:35Z</time>
      </trkpt>
      <trkpt lat="43.4437" lon="6.61796">
        <ele>-31.03</ele>
        <time>2019-08-20T05:37:53Z</time>
      </trkpt>
      <trkpt lat="43.44371" lon="6.61794">
        <ele>-31.14</ele>
        <time>2019-08-20T05:37:54Z</time>
      </trkpt>
      <trkpt lat="43.44365" lon="6.61764">
        <ele>-31.33</ele>
        <time>2019-08-20T05:38:12Z</time>
      </trkpt>
      <trkpt lat="43.4436" lon="6.61742">
        <ele>-31.41</ele>
        <time>2019-08-20T05:38:29Z</time>
      </trkpt>
      <trkpt lat="43.44357" lon="6.61718">
        <ele>-31.93</ele>
        <time>2019-08-20T05:38:48Z</time>
      </trkpt>
      <trkpt lat="43.44353" lon="6.61695">
        <ele>-31.84</ele>
        <time>2019-08-20T05:39:07Z</time>
      </trkpt>
      <trkpt lat="43.4435" lon="6.61685">
        <ele>-31.17</ele>
        <time>2019-08-20T05:39:16Z</time>
      </trkpt>
      <trkpt lat="43.44348" lon="6.61683">
        <ele>-31.01</ele>
        <time>2019-08-20T05:39:18Z</time>
      </trkpt>
      <trkpt lat="43.44352" lon="6.61672">
        <ele>-29.55</ele>
        <time>2019-08-20T05:39:30Z</time>
      </trkpt>
      <trkpt lat="43.44354" lon="6.61661">
        <ele>-27.36</ele>
        <time>2019-08-20T05:39:43Z</time>
      </trkpt>
      <trkpt lat="43.44352" lon="6.61648">
        <ele>-26.9</ele>
        <time>2019-08-20T05:39:58Z</time>
      </trkpt>
      <trkpt lat="43.44346" lon="6.6164">
        <ele>-24.92</ele>
        <time>2019-08-20T05:40:11Z</time>
      </trkpt>
      <trkpt lat="43.44342" lon="6.61635">
        <ele>-24.33</ele>
        <time>2019-08-20T05:40:27Z</time>
      </trkpt>
      <trkpt lat="43.44348" lon="6.61628">
        <ele>-23.79</ele>
        <time>2019-08-20T05:40:43Z</time>
      </trkpt>
      <trkpt lat="43.44358" lon="6.61619">
        <ele>-22.74</ele>
        <time>2019-08-20T05:40:57Z</time>
      </trkpt>
      <trkpt lat="43.44371" lon="6.61611">
        <ele>-20.62</ele>
        <time>2019-08-20T05:41:15Z</time>
      </trkpt>
      <trkpt lat="43.44374" lon="6.61606">
        <ele>-19.83</ele>
        <time>2019-08-20T05:41:22Z</time>
      </trkpt>
      <trkpt lat="43.4438" lon="6.61591">
        <ele>-18.63</ele>
        <time>2019-08-20T05:41:37Z</time>
      </trkpt>
      <trkpt lat="43.44381" lon="6.61574">
        <ele>-16.82</ele>
        <time>2019-08-20T05:41:52Z</time>
      </trkpt>
      <trkpt lat="43.44382" lon="6.61555">
        <ele>-15.11</ele>
        <time>2019-08-20T05:42:12Z</time>
      </trkpt>
      <trkpt lat="43.44383" lon="6.6154">
        <ele>-13.51</ele>
        <time>2019-08-20T05:42:28Z</time>
      </trkpt>
      <trkpt lat="43.44386" lon="6.61525">
        <ele>-12.46</ele>
        <time>2019-08-20T05:42:43Z</time>
      </trkpt>
      <trkpt lat="43.44392" lon="6.61514">
        <ele>-11.04</ele>
        <time>2019-08-20T05:42:57Z</time>
      </trkpt>
      <trkpt lat="43.44401" lon="6.61505">
        <ele>-9.9</ele>
        <time>2019-08-20T05:43:11Z</time>
      </trkpt>
      <trkpt lat="43.44405" lon="6.61502">
        <ele>-9.43</ele>
        <time>2019-08-20T05:43:16Z</time>
      </trkpt>
      <trkpt lat="43.44411" lon="6.61498">
        <ele>-8.36</ele>
        <time>2019-08-20T05:43:24Z</time>
      </trkpt>
      <trkpt lat="43.4442" lon="6.61492">
        <ele>-7.13</ele>
        <time>2019-08-20T05:43:35Z</time>
      </trkpt>
      <trkpt lat="43.44427" lon="6.61477">
        <ele>-6.3</ele>
        <time>2019-08-20T05:43:49Z</time>
      </trkpt>
      <trkpt lat="43.44429" lon="6.61475">
        <ele>-6.17</ele>
        <time>2019-08-20T05:43:53Z</time>
      </trkpt>
      <trkpt lat="43.44437" lon="6.61459">
        <ele>-5.07</ele>
        <time>2019-08-20T05:44:08Z</time>
      </trkpt>
      <trkpt lat="43.44443" lon="6.61444">
        <ele>-3.8</ele>
        <time>2019-08-20T05:44:23Z</time>
      </trkpt>
      <trkpt lat="43.44438" lon="6.61429">
        <ele>-1.86</ele>
        <time>2019-08-20T05:44:39Z</time>
      </trkpt>
      <trkpt lat="43.44429" lon="6.61422">
        <ele>-0.22</ele>
        <time>2019-08-20T05:44:52Z</time>
      </trkpt>
      <trkpt lat="43.44422" lon="6.61413">
        <ele>0.58</ele>
        <time>2019-08-20T05:45:08Z</time>
      </trkpt>
      <trkpt lat="43.44409" lon="6.61408">
        <ele>0.84</ele>
        <time>2019-08-20T05:45:27Z</time>
      </trkpt>
      <trkpt lat="43.4439" lon="6.61401">
        <ele>1.6</ele>
        <time>2019-08-20T05:45:45Z</time>
      </trkpt>
      <trkpt lat="43.44377" lon="6.61394">
        <ele>2.52</ele>
        <time>2019-08-20T05:46:01Z</time>
      </trkpt>
      <trkpt lat="43.44364" lon="6.61387">
        <ele>3.84</ele>
        <time>2019-08-20T05:46:18Z</time>
      </trkpt>
      <trkpt lat="43.44355" lon="6.61377">
        <ele>4.39</ele>
        <time>2019-08-20T05:46:31Z</time>
      </trkpt>
      <trkpt lat="43.4435" lon="6.61367">
        <ele>5.23</ele>
        <time>2019-08-20T05:46:42Z</time>
      </trkpt>
      <trkpt lat="43.44351" lon="6.61354">
        <ele>6.25</ele>
        <time>2019-08-20T05:46:53Z</time>
      </trkpt>
      <trkpt lat="43.44354" lon="6.61349">
        <ele>6.51</ele>
        <time>2019-08-20T05:46:58Z</time>
      </trkpt>
      <trkpt lat="43.44363" lon="6.61336">
        <ele>7.59</ele>
        <time>2019-08-20T05:47:12Z</time>
      </trkpt>
      <trkpt lat="43.44371" lon="6.61335">
        <ele>8.9</ele>
        <time>2019-08-20T05:47:25Z</time>
      </trkpt>
      <trkpt lat="43.44379" lon="6.61346">
        <ele>10.66</ele>
        <time>2019-08-20T05:47:41Z</time>
      </trkpt>
      <trkpt lat="43.44379" lon="6.61347">
        <ele>10.78</ele>
        <time>2019-08-20T05:47:42Z</time>
      </trkpt>
      <trkpt lat="43.44382" lon="6.6135">
        <ele>11.29</ele>
        <time>2019-08-20T05:47:46Z</time>
      </trkpt>
      <trkpt lat="43.44392" lon="6.61357">
        <ele>12.41</ele>
        <time>2019-08-20T05:47:59Z</time>
      </trkpt>
      <trkpt lat="43.44392" lon="6.61356">
        <ele>12.7</ele>
        <time>2019-08-20T05:48:21Z</time>
      </trkpt>
      <trkpt lat="43.44394" lon="6.61353">
        <ele>12.66</ele>
        <time>2019-08-20T05:48:55Z</time>
      </trkpt>
      <trkpt lat="43.44401" lon="6.61344">
        <ele>12.74</ele>
        <time>2019-08-20T05:49:06Z</time>
      </trkpt>
      <trkpt lat="43.44404" lon="6.61332">
        <ele>13.66</ele>
        <time>2019-08-20T05:49:19Z</time>
      </trkpt>
      <trkpt lat="43.44405" lon="6.61317">
        <ele>15.2</ele>
        <time>2019-08-20T05:49:33Z</time>
      </trkpt>
      <trkpt lat="43.44405" lon="6.61302">
        <ele>15.92</ele>
        <time>2019-08-20T05:49:49Z</time>
      </trkpt>
      <trkpt lat="43.44412" lon="6.61294">
        <ele>17.02</ele>
        <time>2019-08-20T05:50:05Z</time>
      </trkpt>
      <trkpt lat="43.44414" lon="6.61291">
        <ele>17.29</ele>
        <time>2019-08-20T05:50:28Z</time>
      </trkpt>
      <trkpt lat="43.44421" lon="6.61281">
        <ele>18.82</ele>
        <time>2019-08-20T05:50:41Z</time>
      </trkpt>
      <trkpt lat="43.44416" lon="6.61267">
        <ele>20.22</ele>
        <time>2019-08-20T05:50:55Z</time>
      </trkpt>
      <trkpt lat="43.44404" lon="6.61263">
        <ele>21.24</ele>
        <time>2019-08-20T05:51:09Z</time>
      </trkpt>
      <trkpt lat="43.44395" lon="6.61251">
        <ele>22.45</ele>
        <time>2019-08-20T05:51:26Z</time>
      </trkpt>
      <trkpt lat="43.44391" lon="6.61246">
        <ele>23</ele>
        <time>2019-08-20T05:51:32Z</time>
      </trkpt>
      <trkpt lat="43.4438" lon="6.61235">
        <ele>23.69</ele>
        <time>2019-08-20T05:51:46Z</time>
      </trkpt>
      <trkpt lat="43.44364" lon="6.6123">
        <ele>24.18</ele>
        <time>2019-08-20T05:52:01Z</time>
      </trkpt>
      <trkpt lat="43.44358" lon="6.61228">
        <ele>24.54</ele>
        <time>2019-08-20T05:52:08Z</time>
      </trkpt>
      <trkpt lat="43.44345" lon="6.61228">
        <ele>25.05</ele>
        <time>2019-08-20T05:52:21Z</time>
      </trkpt>
      <trkpt lat="43.44333" lon="6.61226">
        <ele>26.69</ele>
        <time>2019-08-20T05:52:35Z</time>
      </trkpt>
      <trkpt lat="43.44324" lon="6.61218">
        <ele>27.86</ele>
        <time>2019-08-20T05:52:49Z</time>
      </trkpt>
      <trkpt lat="43.44323" lon="6.61218">
        <ele>28.02</ele>
        <time>2019-08-20T05:52:50Z</time>
      </trkpt>
      <trkpt lat="43.44317" lon="6.61205">
        <ele>28.87</ele>
        <time>2019-08-20T05:53:02Z</time>
      </trkpt>
      <trkpt lat="43.44316" lon="6.61199">
        <ele>28.99</ele>
        <time>2019-08-20T05:53:07Z</time>
      </trkpt>
      <trkpt lat="43.44317" lon="6.61185">
        <ele>29.36</ele>
        <time>2019-08-20T05:53:18Z</time>
      </trkpt>
      <trkpt lat="43.4432" lon="6.61173">
        <ele>30.23</ele>
        <time>2019-08-20T05:53:30Z</time>
      </trkpt>
      <trkpt lat="43.44322" lon="6.61169">
        <ele>30.63</ele>
        <time>2019-08-20T05:53:34Z</time>
      </trkpt>
      <trkpt lat="43.44323" lon="6.61162">
        <ele>30.93</ele>
        <time>2019-08-20T05:53:39Z</time>
      </trkpt>
      <trkpt lat="43.44327" lon="6.61152">
        <ele>31.07</ele>
        <time>2019-08-20T05:53:47Z</time>
      </trkpt>
      <trkpt lat="43.4433" lon="6.61131">
        <ele>31.97</ele>
        <time>2019-08-20T05:54:02Z</time>
      </trkpt>
      <trkpt lat="43.4433" lon="6.61126">
        <ele>32.11</ele>
        <time>2019-08-20T05:54:05Z</time>
      </trkpt>
      <trkpt lat="43.44327" lon="6.61108">
        <ele>33.02</ele>
        <time>2019-08-20T05:54:18Z</time>
      </trkpt>
      <trkpt lat="43.44317" lon="6.61096">
        <ele>33.26</ele>
        <time>2019-08-20T05:54:34Z</time>
      </trkpt>
      <trkpt lat="43.44304" lon="6.61079">
        <ele>34.09</ele>
        <time>2019-08-20T05:54:52Z</time>
      </trkpt>
      <trkpt lat="43.44294" lon="6.6106">
        <ele>35.34</ele>
        <time>2019-08-20T05:55:09Z</time>
      </trkpt>
      <trkpt lat="43.44293" lon="6.61057">
        <ele>35.86</ele>
        <time>2019-08-20T05:55:22Z</time>
      </trkpt>
      <trkpt lat="43.44293" lon="6.61054">
        <ele>35.86</ele>
        <time>2019-08-20T05:55:43Z</time>
      </trkpt>
      <trkpt lat="43.44289" lon="6.61048">
        <ele>35.94</ele>
        <time>2019-08-20T05:56:03Z</time>
      </trkpt>
      <trkpt lat="43.44286" lon="6.61039">
        <ele>36.27</ele>
        <time>2019-08-20T05:56:10Z</time>
      </trkpt>
      <trkpt lat="43.44279" lon="6.61013">
        <ele>38.17</ele>
        <time>2019-08-20T05:56:27Z</time>
      </trkpt>
      <trkpt lat="43.44273" lon="6.60998">
        <ele>39.07</ele>
        <time>2019-08-20T05:56:41Z</time>
      </trkpt>
      <trkpt lat="43.44266" lon="6.60988">
        <ele>39.73</ele>
        <time>2019-08-20T05:56:51Z</time>
      </trkpt>
      <trkpt lat="43.44266" lon="6.6097">
        <ele>40.86</ele>
        <time>2019-08-20T05:57:07Z</time>
      </trkpt>
      <trkpt lat="43.4426" lon="6.60949">
        <ele>41.12</ele>
        <time>2019-08-20T05:57:23Z</time>
      </trkpt>
      <trkpt lat="43.44254" lon="6.60929">
        <ele>41.51</ele>
        <time>2019-08-20T05:57:37Z</time>
      </trkpt>
      <trkpt lat="43.44252" lon="6.60923">
        <ele>41.24</ele>
        <time>2019-08-20T05:57:42Z</time>
      </trkpt>
      <trkpt lat="43.44247" lon="6.60904">
        <ele>40.88</ele>
        <time>2019-08-20T05:57:55Z</time>
      </trkpt>
      <trkpt lat="43.44236" lon="6.60888">
        <ele>39.96</ele>
        <time>2019-08-20T05:58:09Z</time>
      </trkpt>
      <trkpt lat="43.44231" lon="6.60876">
        <ele>39.11</ele>
        <time>2019-08-20T05:58:18Z</time>
      </trkpt>
      <trkpt lat="43.44228" lon="6.60871">
        <ele>38.93</ele>
        <time>2019-08-20T05:58:23Z</time>
      </trkpt>
      <trkpt lat="43.44226" lon="6.60867">
        <ele>38.88</ele>
        <time>2019-08-20T05:58:26Z</time>
      </trkpt>
      <trkpt lat="43.44221" lon="6.60862">
        <ele>38.72</ele>
        <time>2019-08-20T05:58:32Z</time>
      </trkpt>
      <trkpt lat="43.44206" lon="6.60853">
        <ele>38.85</ele>
        <time>2019-08-20T05:58:47Z</time>
      </trkpt>
      <trkpt lat="43.44205" lon="6.60853">
        <ele>38.92</ele>
        <time>2019-08-20T05:58:48Z</time>
      </trkpt>
      <trkpt lat="43.44192" lon="6.60841">
        <ele>40.05</ele>
        <time>2019-08-20T05:59:03Z</time>
      </trkpt>
      <trkpt lat="43.44175" lon="6.60826">
        <ele>39.36</ele>
        <time>2019-08-20T05:59:20Z</time>
      </trkpt>
      <trkpt lat="43.44168" lon="6.60814">
        <ele>39.1</ele>
        <time>2019-08-20T05:59:31Z</time>
      </trkpt>
      <trkpt lat="43.44167" lon="6.6081">
        <ele>39.09</ele>
        <time>2019-08-20T05:59:33Z</time>
      </trkpt>
      <trkpt lat="43.44166" lon="6.60802">
        <ele>38.96</ele>
        <time>2019-08-20T05:59:38Z</time>
      </trkpt>
      <trkpt lat="43.44168" lon="6.60782">
        <ele>38.83</ele>
        <time>2019-08-20T05:59:51Z</time>
      </trkpt>
      <trkpt lat="43.44171" lon="6.60762">
        <ele>38.55</ele>
        <time>2019-08-20T06:00:07Z</time>
      </trkpt>
      <trkpt lat="43.44175" lon="6.60741">
        <ele>38.42</ele>
        <time>2019-08-20T06:00:21Z</time>
      </trkpt>
      <trkpt lat="43.44175" lon="6.60712">
        <ele>38.22</ele>
        <time>2019-08-20T06:00:38Z</time>
      </trkpt>
      <trkpt lat="43.44176" lon="6.60688">
        <ele>38.33</ele>
        <time>2019-08-20T06:00:52Z</time>
      </trkpt>
      <trkpt lat="43.44176" lon="6.6068">
        <ele>38.37</ele>
        <time>2019-08-20T06:00:58Z</time>
      </trkpt>
      <trkpt lat="43.44182" lon="6.60667">
        <ele>38.48</ele>
        <time>2019-08-20T06:01:10Z</time>
      </trkpt>
      <trkpt lat="43.44184" lon="6.60652">
        <ele>38.47</ele>
        <time>2019-08-20T06:01:19Z</time>
      </trkpt>
      <trkpt lat="43.4419" lon="6.60639">
        <ele>38.3</ele>
        <time>2019-08-20T06:01:30Z</time>
      </trkpt>
      <trkpt lat="43.44192" lon="6.60623">
        <ele>38.76</ele>
        <time>2019-08-20T06:01:41Z</time>
      </trkpt>
      <trkpt lat="43.44197" lon="6.60599">
        <ele>39.64</ele>
        <time>2019-08-20T06:01:59Z</time>
      </trkpt>
      <trkpt lat="43.44201" lon="6.60574">
        <ele>40.14</ele>
        <time>2019-08-20T06:02:16Z</time>
      </trkpt>
      <trkpt lat="43.44204" lon="6.60558">
        <ele>40.52</ele>
        <time>2019-08-20T06:02:29Z</time>
      </trkpt>
      <trkpt lat="43.44208" lon="6.60532">
        <ele>42.01</ele>
        <time>2019-08-20T06:02:48Z</time>
      </trkpt>
      <trkpt lat="43.44213" lon="6.60505">
        <ele>42.97</ele>
        <time>2019-08-20T06:03:09Z</time>
      </trkpt>
      <trkpt lat="43.44212" lon="6.60501">
        <ele>43.07</ele>
        <time>2019-08-20T06:03:27Z</time>
      </trkpt>
      <trkpt lat="43.44211" lon="6.60494">
        <ele>42.81</ele>
        <time>2019-08-20T06:04:04Z</time>
      </trkpt>
      <trkpt lat="43.44208" lon="6.60489">
        <ele>42.89</ele>
        <time>2019-08-20T06:04:22Z</time>
      </trkpt>
      <trkpt lat="43.44211" lon="6.60467">
        <ele>42.89</ele>
        <time>2019-08-20T06:04:42Z</time>
      </trkpt>
      <trkpt lat="43.44211" lon="6.60462">
        <ele>45.82</ele>
        <time>2019-08-20T06:04:49Z</time>
      </trkpt>
      <trkpt lat="43.44208" lon="6.60449">
        <ele>46.26</ele>
        <time>2019-08-20T06:04:59Z</time>
      </trkpt>
      <trkpt lat="43.44206" lon="6.60425">
        <ele>47.48</ele>
        <time>2019-08-20T06:05:16Z</time>
      </trkpt>
      <trkpt lat="43.44207" lon="6.60404">
        <ele>49.33</ele>
        <time>2019-08-20T06:05:33Z</time>
      </trkpt>
      <trkpt lat="43.44212" lon="6.60392">
        <ele>50.88</ele>
        <time>2019-08-20T06:05:46Z</time>
      </trkpt>
      <trkpt lat="43.44218" lon="6.60381">
        <ele>51.5</ele>
        <time>2019-08-20T06:05:57Z</time>
      </trkpt>
      <trkpt lat="43.44226" lon="6.60361">
        <ele>51.72</ele>
        <time>2019-08-20T06:06:13Z</time>
      </trkpt>
      <trkpt lat="43.44232" lon="6.60353">
        <ele>52.06</ele>
        <time>2019-08-20T06:06:22Z</time>
      </trkpt>
      <trkpt lat="43.44233" lon="6.60351">
        <ele>52.22</ele>
        <time>2019-08-20T06:06:24Z</time>
      </trkpt>
      <trkpt lat="43.44238" lon="6.60335">
        <ele>53.31</ele>
        <time>2019-08-20T06:06:37Z</time>
      </trkpt>
      <trkpt lat="43.44238" lon="6.60333">
        <ele>53.38</ele>
        <time>2019-08-20T06:06:39Z</time>
      </trkpt>
      <trkpt lat="43.44236" lon="6.60313">
        <ele>53.69</ele>
        <time>2019-08-20T06:06:54Z</time>
      </trkpt>
      <trkpt lat="43.44238" lon="6.60293">
        <ele>54.54</ele>
        <time>2019-08-20T06:07:10Z</time>
      </trkpt>
      <trkpt lat="43.44237" lon="6.60281">
        <ele>55.45</ele>
        <time>2019-08-20T06:07:19Z</time>
      </trkpt>
      <trkpt lat="43.44243" lon="6.60269">
        <ele>55.56</ele>
        <time>2019-08-20T06:07:31Z</time>
      </trkpt>
      <trkpt lat="43.4425" lon="6.60248">
        <ele>58.31</ele>
        <time>2019-08-20T06:07:51Z</time>
      </trkpt>
      <trkpt lat="43.44249" lon="6.60245">
        <ele>58.83</ele>
        <time>2019-08-20T06:08:04Z</time>
      </trkpt>
      <trkpt lat="43.4425" lon="6.60245">
        <ele>58.82</ele>
        <time>2019-08-20T06:08:14Z</time>
      </trkpt>
      <trkpt lat="43.44251" lon="6.60242">
        <ele>58.82</ele>
        <time>2019-08-20T06:08:16Z</time>
      </trkpt>
      <trkpt lat="43.44253" lon="6.60239">
        <ele>58.88</ele>
        <time>2019-08-20T06:08:19Z</time>
      </trkpt>
      <trkpt lat="43.44258" lon="6.60226">
        <ele>59.96</ele>
        <time>2019-08-20T06:08:31Z</time>
      </trkpt>
      <trkpt lat="43.44261" lon="6.60212">
        <ele>61.42</ele>
        <time>2019-08-20T06:08:43Z</time>
      </trkpt>
      <trkpt lat="43.44262" lon="6.60199">
        <ele>62.58</ele>
        <time>2019-08-20T06:08:53Z</time>
      </trkpt>
      <trkpt lat="43.44267" lon="6.60184">
        <ele>63.54</ele>
        <time>2019-08-20T06:09:06Z</time>
      </trkpt>
      <trkpt lat="43.44274" lon="6.60169">
        <ele>65.39</ele>
        <time>2019-08-20T06:09:24Z</time>
      </trkpt>
      <trkpt lat="43.44285" lon="6.60157">
        <ele>65.82</ele>
        <time>2019-08-20T06:09:38Z</time>
      </trkpt>
      <trkpt lat="43.44293" lon="6.60149">
        <ele>66.82</ele>
        <time>2019-08-20T06:09:50Z</time>
      </trkpt>
      <trkpt lat="43.44303" lon="6.60143">
        <ele>68.8</ele>
        <time>2019-08-20T06:10:06Z</time>
      </trkpt>
      <trkpt lat="43.44314" lon="6.60143">
        <ele>71.51</ele>
        <time>2019-08-20T06:10:23Z</time>
      </trkpt>
      <trkpt lat="43.44322" lon="6.6014">
        <ele>73.48</ele>
        <time>2019-08-20T06:10:39Z</time>
      </trkpt>
      <trkpt lat="43.44321" lon="6.60138">
        <ele>73.7</ele>
        <time>2019-08-20T06:11:04Z</time>
      </trkpt>
      <trkpt lat="43.44321" lon="6.60138">
        <ele>73.67</ele>
        <time>2019-08-20T06:11:28Z</time>
      </trkpt>
      <trkpt lat="43.4432" lon="6.60137">
        <ele>73.46</ele>
        <time>2019-08-20T06:11:47Z</time>
      </trkpt>
      <trkpt lat="43.44319" lon="6.60137">
        <ele>73.39</ele>
        <time>2019-08-20T06:12:11Z</time>
      </trkpt>
      <trkpt lat="43.44319" lon="6.60139">
        <ele>73.38</ele>
        <time>2019-08-20T06:12:34Z</time>
      </trkpt>
      <trkpt lat="43.44319" lon="6.60138">
        <ele>73.41</ele>
        <time>2019-08-20T06:12:59Z</time>
      </trkpt>
      <trkpt lat="43.44319" lon="6.60133">
        <ele>73.41</ele>
        <time>2019-08-20T06:13:24Z</time>
      </trkpt>
      <trkpt lat="43.44317" lon="6.60131">
        <ele>73.41</ele>
        <time>2019-08-20T06:13:49Z</time>
      </trkpt>
      <trkpt lat="43.44318" lon="6.60139">
        <ele>73.41</ele>
        <time>2019-08-20T06:14:16Z</time>
      </trkpt>
      <trkpt lat="43.44318" lon="6.60137">
        <ele>73.41</ele>
        <time>2019-08-20T06:14:39Z</time>
      </trkpt>
      <trkpt lat="43.44318" lon="6.60135">
        <ele>73.41</ele>
        <time>2019-08-20T06:15:00Z</time>
      </trkpt>
      <trkpt lat="43.44317" lon="6.60135">
        <ele>73.41</ele>
        <time>2019-08-20T06:15:27Z</time>
      </trkpt>
      <trkpt lat="43.44323" lon="6.60132">
        <ele>73.41</ele>
        <time>2019-08-20T06:15:52Z</time>
      </trkpt>
      <trkpt lat="43.44331" lon="6.60124">
        <ele>73.23</ele>
        <time>2019-08-20T06:16:03Z</time>
      </trkpt>
      <trkpt lat="43.44338" lon="6.60117">
        <ele>72.15</ele>
        <time>2019-08-20T06:16:11Z</time>
      </trkpt>
      <trkpt lat="43.44352" lon="6.60109">
        <ele>71.44</ele>
        <time>2019-08-20T06:16:23Z</time>
      </trkpt>
      <trkpt lat="43.4436" lon="6.601">
        <ele>72.19</ele>
        <time>2019-08-20T06:16:34Z</time>
      </trkpt>
      <trkpt lat="43.44368" lon="6.60084">
        <ele>73.7</ele>
        <time>2019-08-20T06:16:50Z</time>
      </trkpt>
      <trkpt lat="43.44369" lon="6.60077">
        <ele>74.26</ele>
        <time>2019-08-20T06:16:55Z</time>
      </trkpt>
      <trkpt lat="43.4437" lon="6.60075">
        <ele>74.48</ele>
        <time>2019-08-20T06:16:57Z</time>
      </trkpt>
      <trkpt lat="43.44373" lon="6.60066">
        <ele>75.09</ele>
        <time>2019-08-20T06:17:04Z</time>
      </trkpt>
      <trkpt lat="43.44372" lon="6.60047">
        <ele>75.56</ele>
        <time>2019-08-20T06:17:19Z</time>
      </trkpt>
      <trkpt lat="43.44371" lon="6.6003">
        <ele>77.35</ele>
        <time>2019-08-20T06:17:35Z</time>
      </trkpt>
      <trkpt lat="43.44373" lon="6.60024">
        <ele>77.97</ele>
        <time>2019-08-20T06:17:40Z</time>
      </trkpt>
      <trkpt lat="43.44374" lon="6.60018">
        <ele>78.67</ele>
        <time>2019-08-20T06:17:45Z</time>
      </trkpt>
      <trkpt lat="43.44379" lon="6.60002">
        <ele>80.43</ele>
        <time>2019-08-20T06:18:02Z</time>
      </trkpt>
      <trkpt lat="43.44387" lon="6.59994">
        <ele>83.21</ele>
        <time>2019-08-20T06:18:19Z</time>
      </trkpt>
      <trkpt lat="43.44388" lon="6.59982">
        <ele>85.35</ele>
        <time>2019-08-20T06:18:31Z</time>
      </trkpt>
      <trkpt lat="43.44391" lon="6.59967">
        <ele>86.18</ele>
        <time>2019-08-20T06:18:46Z</time>
      </trkpt>
      <trkpt lat="43.44391" lon="6.59966">
        <ele>86.27</ele>
        <time>2019-08-20T06:18:47Z</time>
      </trkpt>
      <trkpt lat="43.44397" lon="6.59963">
        <ele>88.3</ele>
        <time>2019-08-20T06:19:02Z</time>
      </trkpt>
      <trkpt lat="43.44396" lon="6.5996">
        <ele>88.57</ele>
        <time>2019-08-20T06:19:26Z</time>
      </trkpt>
      <trkpt lat="43.44394" lon="6.59962">
        <ele>88.69</ele>
        <time>2019-08-20T06:19:47Z</time>
      </trkpt>
      <trkpt lat="43.44397" lon="6.59965">
        <ele>88.45</ele>
        <time>2019-08-20T06:20:07Z</time>
      </trkpt>
      <trkpt lat="43.44401" lon="6.59965">
        <ele>88.69</ele>
        <time>2019-08-20T06:20:24Z</time>
      </trkpt>
      <trkpt lat="43.44398" lon="6.59961">
        <ele>88.9</ele>
        <time>2019-08-20T06:20:41Z</time>
      </trkpt>
      <trkpt lat="43.444" lon="6.59958">
        <ele>88.87</ele>
        <time>2019-08-20T06:21:03Z</time>
      </trkpt>
      <trkpt lat="43.444" lon="6.59959">
        <ele>88.8</ele>
        <time>2019-08-20T06:21:24Z</time>
      </trkpt>
      <trkpt lat="43.44405" lon="6.59957">
        <ele>89.16</ele>
        <time>2019-08-20T06:21:34Z</time>
      </trkpt>
      <trkpt lat="43.44411" lon="6.59943">
        <ele>89.66</ele>
        <time>2019-08-20T06:21:47Z</time>
      </trkpt>
      <trkpt lat="43.44425" lon="6.59928">
        <ele>90</ele>
        <time>2019-08-20T06:22:06Z</time>
      </trkpt>
      <trkpt lat="43.44427" lon="6.59924">
        <ele>90.2</ele>
        <time>2019-08-20T06:22:09Z</time>
      </trkpt>
      <trkpt lat="43.44431" lon="6.59908">
        <ele>90.89</ele>
        <time>2019-08-20T06:22:23Z</time>
      </trkpt>
      <trkpt lat="43.44437" lon="6.59893">
        <ele>90.88</ele>
        <time>2019-08-20T06:22:34Z</time>
      </trkpt>
      <trkpt lat="43.44444" lon="6.59882">
        <ele>91.62</ele>
        <time>2019-08-20T06:22:46Z</time>
      </trkpt>
      <trkpt lat="43.44448" lon="6.59869">
        <ele>91.91</ele>
        <time>2019-08-20T06:22:55Z</time>
      </trkpt>
      <trkpt lat="43.44457" lon="6.59852">
        <ele>93.38</ele>
        <time>2019-08-20T06:23:12Z</time>
      </trkpt>
      <trkpt lat="43.44464" lon="6.59844">
        <ele>93.6</ele>
        <time>2019-08-20T06:23:23Z</time>
      </trkpt>
      <trkpt lat="43.44472" lon="6.59839">
        <ele>96.51</ele>
        <time>2019-08-20T06:23:40Z</time>
      </trkpt>
      <trkpt lat="43.44482" lon="6.59836">
        <ele>97.93</ele>
        <time>2019-08-20T06:23:55Z</time>
      </trkpt>
      <trkpt lat="43.44495" lon="6.59837">
        <ele>99.59</ele>
        <time>2019-08-20T06:24:12Z</time>
      </trkpt>
      <trkpt lat="43.44508" lon="6.59829">
        <ele>101.41</ele>
        <time>2019-08-20T06:24:28Z</time>
      </trkpt>
      <trkpt lat="43.44516" lon="6.59822">
        <ele>101.87</ele>
        <time>2019-08-20T06:24:39Z</time>
      </trkpt>
      <trkpt lat="43.44534" lon="6.59811">
        <ele>103.08</ele>
        <time>2019-08-20T06:24:59Z</time>
      </trkpt>
      <trkpt lat="43.44543" lon="6.5981">
        <ele>103.82</ele>
        <time>2019-08-20T06:25:10Z</time>
      </trkpt>
      <trkpt lat="43.44552" lon="6.59812">
        <ele>105.83</ele>
        <time>2019-08-20T06:25:24Z</time>
      </trkpt>
      <trkpt lat="43.44561" lon="6.59817">
        <ele>108.9</ele>
        <time>2019-08-20T06:25:42Z</time>
      </trkpt>
      <trkpt lat="43.44576" lon="6.59821">
        <ele>111.36</ele>
        <time>2019-08-20T06:26:01Z</time>
      </trkpt>
      <trkpt lat="43.44585" lon="6.59826">
        <ele>112.71</ele>
        <time>2019-08-20T06:26:13Z</time>
      </trkpt>
      <trkpt lat="43.44601" lon="6.59826">
        <ele>114.51</ele>
        <time>2019-08-20T06:26:31Z</time>
      </trkpt>
      <trkpt lat="43.44613" lon="6.59824">
        <ele>116.12</ele>
        <time>2019-08-20T06:26:47Z</time>
      </trkpt>
      <trkpt lat="43.44628" lon="6.59821">
        <ele>117.6</ele>
        <time>2019-08-20T06:27:06Z</time>
      </trkpt>
      <trkpt lat="43.44637" lon="6.59817">
        <ele>117.2</ele>
        <time>2019-08-20T06:27:16Z</time>
      </trkpt>
      <trkpt lat="43.44644" lon="6.59812">
        <ele>116.37</ele>
        <time>2019-08-20T06:27:23Z</time>
      </trkpt>
      <trkpt lat="43.44655" lon="6.59803">
        <ele>115.2</ele>
        <time>2019-08-20T06:27:35Z</time>
      </trkpt>
      <trkpt lat="43.44668" lon="6.59793">
        <ele>115.98</ele>
        <time>2019-08-20T06:27:52Z</time>
      </trkpt>
      <trkpt lat="43.44679" lon="6.59783">
        <ele>116.49</ele>
        <time>2019-08-20T06:28:04Z</time>
      </trkpt>
      <trkpt lat="43.44689" lon="6.59784">
        <ele>117.73</ele>
        <time>2019-08-20T06:28:20Z</time>
      </trkpt>
      <trkpt lat="43.44697" lon="6.59788">
        <ele>119.49</ele>
        <time>2019-08-20T06:28:37Z</time>
      </trkpt>
      <trkpt lat="43.44703" lon="6.59798">
        <ele>119.94</ele>
        <time>2019-08-20T06:28:54Z</time>
      </trkpt>
      <trkpt lat="43.44712" lon="6.59815">
        <ele>121.06</ele>
        <time>2019-08-20T06:29:11Z</time>
      </trkpt>
      <trkpt lat="43.44714" lon="6.59818">
        <ele>121.62</ele>
        <time>2019-08-20T06:29:30Z</time>
      </trkpt>
      <trkpt lat="43.44718" lon="6.59821">
        <ele>121.56</ele>
        <time>2019-08-20T06:29:53Z</time>
      </trkpt>
      <trkpt lat="43.44721" lon="6.59816">
        <ele>121.45</ele>
        <time>2019-08-20T06:30:12Z</time>
      </trkpt>
      <trkpt lat="43.44722" lon="6.59815">
        <ele>121.47</ele>
        <time>2019-08-20T06:30:34Z</time>
      </trkpt>
      <trkpt lat="43.44721" lon="6.59823">
        <ele>121.4</ele>
        <time>2019-08-20T06:30:58Z</time>
      </trkpt>
      <trkpt lat="43.44721" lon="6.5982">
        <ele>121.4</ele>
        <time>2019-08-20T06:31:20Z</time>
      </trkpt>
      <trkpt lat="43.44724" lon="6.59819">
        <ele>121.4</ele>
        <time>2019-08-20T06:31:46Z</time>
      </trkpt>
      <trkpt lat="43.44713" lon="6.59823">
        <ele>121.4</ele>
        <time>2019-08-20T06:31:59Z</time>
      </trkpt>
      <trkpt lat="43.44698" lon="6.5983">
        <ele>121.84</ele>
        <time>2019-08-20T06:32:14Z</time>
      </trkpt>
      <trkpt lat="43.44695" lon="6.59846">
        <ele>123.18</ele>
        <time>2019-08-20T06:32:31Z</time>
      </trkpt>
      <trkpt lat="43.44699" lon="6.59867">
        <ele>124.56</ele>
        <time>2019-08-20T06:32:48Z</time>
      </trkpt>
      <trkpt lat="43.44699" lon="6.59874">
        <ele>124.97</ele>
        <time>2019-08-20T06:32:53Z</time>
      </trkpt>
      <trkpt lat="43.44696" lon="6.5989">
        <ele>126</ele>
        <time>2019-08-20T06:33:06Z</time>
      </trkpt>
      <trkpt lat="43.44697" lon="6.59893">
        <ele>125.97</ele>
        <time>2019-08-20T06:33:21Z</time>
      </trkpt>
      <trkpt lat="43.44687" lon="6.59898">
        <ele>125.57</ele>
        <time>2019-08-20T06:33:34Z</time>
      </trkpt>
      <trkpt lat="43.44672" lon="6.59905">
        <ele>125.6</ele>
        <time>2019-08-20T06:33:51Z</time>
      </trkpt>
      <trkpt lat="43.44659" lon="6.59915">
        <ele>126.29</ele>
        <time>2019-08-20T06:34:07Z</time>
      </trkpt>
      <trkpt lat="43.44656" lon="6.59917">
        <ele>126.84</ele>
        <time>2019-08-20T06:34:11Z</time>
      </trkpt>
      <trkpt lat="43.44648" lon="6.59937">
        <ele>127.69</ele>
        <time>2019-08-20T06:34:24Z</time>
      </trkpt>
      <trkpt lat="43.44646" lon="6.59946">
        <ele>127.99</ele>
        <time>2019-08-20T06:34:30Z</time>
      </trkpt>
      <trkpt lat="43.44643" lon="6.59954">
        <ele>128.36</ele>
        <time>2019-08-20T06:34:36Z</time>
      </trkpt>
      <trkpt lat="43.44636" lon="6.5997">
        <ele>129.14</ele>
        <time>2019-08-20T06:34:49Z</time>
      </trkpt>
      <trkpt lat="43.44636" lon="6.59991">
        <ele>129.62</ele>
        <time>2019-08-20T06:35:03Z</time>
      </trkpt>
      <trkpt lat="43.44636" lon="6.59997">
        <ele>129.95</ele>
        <time>2019-08-20T06:35:18Z</time>
      </trkpt>
      <trkpt lat="43.44633" lon="6.60017">
        <ele>130.74</ele>
        <time>2019-08-20T06:35:35Z</time>
      </trkpt>
      <trkpt lat="43.44633" lon="6.60028">
        <ele>131.48</ele>
        <time>2019-08-20T06:35:45Z</time>
      </trkpt>
      <trkpt lat="43.44629" lon="6.60051">
        <ele>132.52</ele>
        <time>2019-08-20T06:36:01Z</time>
      </trkpt>
      <trkpt lat="43.44627" lon="6.60065">
        <ele>134.38</ele>
        <time>2019-08-20T06:36:15Z</time>
      </trkpt>
      <trkpt lat="43.44635" lon="6.60081">
        <ele>135.82</ele>
        <time>2019-08-20T06:36:31Z</time>
      </trkpt>
      <trkpt lat="43.44645" lon="6.60095">
        <ele>136.67</ele>
        <time>2019-08-20T06:36:43Z</time>
      </trkpt>
      <trkpt lat="43.44649" lon="6.60108">
        <ele>138.43</ele>
        <time>2019-08-20T06:36:59Z</time>
      </trkpt>
      <trkpt lat="43.44661" lon="6.60116">
        <ele>139.66</ele>
        <time>2019-08-20T06:37:10Z</time>
      </trkpt>
      <trkpt lat="43.44668" lon="6.6012">
        <ele>140.05</ele>
        <time>2019-08-20T06:37:16Z</time>
      </trkpt>
      <trkpt lat="43.44679" lon="6.60113">
        <ele>140.2</ele>
        <time>2019-08-20T06:37:29Z</time>
      </trkpt>
      <trkpt lat="43.4468" lon="6.60112">
        <ele>140.19</ele>
        <time>2019-08-20T06:37:30Z</time>
      </trkpt>
      <trkpt lat="43.44683" lon="6.60098">
        <ele>139.81</ele>
        <time>2019-08-20T06:37:39Z</time>
      </trkpt>
      <trkpt lat="43.44688" lon="6.60093">
        <ele>140.57</ele>
        <time>2019-08-20T06:37:44Z</time>
      </trkpt>
      <trkpt lat="43.44694" lon="6.60089">
        <ele>141.54</ele>
        <time>2019-08-20T06:37:57Z</time>
      </trkpt>
      <trkpt lat="43.44702" lon="6.60081">
        <ele>141.26</ele>
        <time>2019-08-20T06:38:11Z</time>
      </trkpt>
      <trkpt lat="43.44714" lon="6.60076">
        <ele>140.38</ele>
        <time>2019-08-20T06:38:27Z</time>
      </trkpt>
      <trkpt lat="43.4472" lon="6.60072">
        <ele>141.19</ele>
        <time>2019-08-20T06:38:41Z</time>
      </trkpt>
      <trkpt lat="43.44732" lon="6.6007">
        <ele>143.09</ele>
        <time>2019-08-20T06:38:55Z</time>
      </trkpt>
      <trkpt lat="43.44741" lon="6.6007">
        <ele>144.33</ele>
        <time>2019-08-20T06:39:06Z</time>
      </trkpt>
      <trkpt lat="43.44747" lon="6.60076">
        <ele>145.9</ele>
        <time>2019-08-20T06:39:18Z</time>
      </trkpt>
      <trkpt lat="43.44751" lon="6.60079">
        <ele>147.22</ele>
        <time>2019-08-20T06:39:29Z</time>
      </trkpt>
      <trkpt lat="43.44758" lon="6.60085">
        <ele>149.11</ele>
        <time>2019-08-20T06:39:46Z</time>
      </trkpt>
      <trkpt lat="43.44765" lon="6.60088">
        <ele>150.43</ele>
        <time>2019-08-20T06:40:00Z</time>
      </trkpt>
      <trkpt lat="43.44771" lon="6.60089">
        <ele>151.13</ele>
        <time>2019-08-20T06:40:12Z</time>
      </trkpt>
      <trkpt lat="43.4478" lon="6.60097">
        <ele>153.35</ele>
        <time>2019-08-20T06:40:30Z</time>
      </trkpt>
      <trkpt lat="43.44789" lon="6.60101">
        <ele>155.35</ele>
        <time>2019-08-20T06:40:45Z</time>
      </trkpt>
      <trkpt lat="43.44795" lon="6.60102">
        <ele>157.34</ele>
        <time>2019-08-20T06:41:02Z</time>
      </trkpt>
      <trkpt lat="43.448" lon="6.60107">
        <ele>159.15</ele>
        <time>2019-08-20T06:41:19Z</time>
      </trkpt>
      <trkpt lat="43.44803" lon="6.60111">
        <ele>160.97</ele>
        <time>2019-08-20T06:41:32Z</time>
      </trkpt>
      <trkpt lat="43.44806" lon="6.60113">
        <ele>161.61</ele>
        <time>2019-08-20T06:41:36Z</time>
      </trkpt>
      <trkpt lat="43.44808" lon="6.60119">
        <ele>163.72</ele>
        <time>2019-08-20T06:41:55Z</time>
      </trkpt>
      <trkpt lat="43.44809" lon="6.60123">
        <ele>165.25</ele>
        <time>2019-08-20T06:42:08Z</time>
      </trkpt>
      <trkpt lat="43.44814" lon="6.60133">
        <ele>167.41</ele>
        <time>2019-08-20T06:42:26Z</time>
      </trkpt>
      <trkpt lat="43.4482" lon="6.60137">
        <ele>168.69</ele>
        <time>2019-08-20T06:42:41Z</time>
      </trkpt>
      <trkpt lat="43.44824" lon="6.6014">
        <ele>168.78</ele>
        <time>2019-08-20T06:43:04Z</time>
      </trkpt>
      <trkpt lat="43.44824" lon="6.60141">
        <ele>168.79</ele>
        <time>2019-08-20T06:43:28Z</time>
      </trkpt>
      <trkpt lat="43.44827" lon="6.60142">
        <ele>168.99</ele>
        <time>2019-08-20T06:43:52Z</time>
      </trkpt>
      <trkpt lat="43.44823" lon="6.60147">
        <ele>170.53</ele>
        <time>2019-08-20T06:44:04Z</time>
      </trkpt>
      <trkpt lat="43.44826" lon="6.60152">
        <ele>172.71</ele>
        <time>2019-08-20T06:44:20Z</time>
      </trkpt>
      <trkpt lat="43.44823" lon="6.60157">
        <ele>174.67</ele>
        <time>2019-08-20T06:44:36Z</time>
      </trkpt>
      <trkpt lat="43.4482" lon="6.6016">
        <ele>175.94</ele>
        <time>2019-08-20T06:44:51Z</time>
      </trkpt>
      <trkpt lat="43.44821" lon="6.60159">
        <ele>176.73</ele>
        <time>2019-08-20T06:45:04Z</time>
      </trkpt>
      <trkpt lat="43.44826" lon="6.6016">
        <ele>176.96</ele>
        <time>2019-08-20T06:45:23Z</time>
      </trkpt>
      <trkpt lat="43.44829" lon="6.6016">
        <ele>177.34</ele>
        <time>2019-08-20T06:45:42Z</time>
      </trkpt>
      <trkpt lat="43.4483" lon="6.60161">
        <ele>177.42</ele>
        <time>2019-08-20T06:46:05Z</time>
      </trkpt>
      <trkpt lat="43.44831" lon="6.60161">
        <ele>177.48</ele>
        <time>2019-08-20T06:46:30Z</time>
      </trkpt>
      <trkpt lat="43.44831" lon="6.60161">
        <ele>177.47</ele>
        <time>2019-08-20T06:46:52Z</time>
      </trkpt>
      <trkpt lat="43.44832" lon="6.60166">
        <ele>177.69</ele>
        <time>2019-08-20T06:47:18Z</time>
      </trkpt>
      <trkpt lat="43.44832" lon="6.60163">
        <ele>177.69</ele>
        <time>2019-08-20T06:47:41Z</time>
      </trkpt>
      <trkpt lat="43.4483" lon="6.60163">
        <ele>177.69</ele>
        <time>2019-08-20T06:48:04Z</time>
      </trkpt>
      <trkpt lat="43.44829" lon="6.60158">
        <ele>177.69</ele>
        <time>2019-08-20T06:48:24Z</time>
      </trkpt>
      <trkpt lat="43.44825" lon="6.60157">
        <ele>177.69</ele>
        <time>2019-08-20T06:48:47Z</time>
      </trkpt>
      <trkpt lat="43.44827" lon="6.60159">
        <ele>177.69</ele>
        <time>2019-08-20T06:49:09Z</time>
      </trkpt>
      <trkpt lat="43.4483" lon="6.60163">
        <ele>177.69</ele>
        <time>2019-08-20T06:49:12Z</time>
      </trkpt>
      <trkpt lat="43.44832" lon="6.6017">
        <ele>177.69</ele>
        <time>2019-08-20T06:49:30Z</time>
      </trkpt>
      <trkpt lat="43.4483" lon="6.6018">
        <ele>177.69</ele>
        <time>2019-08-20T06:49:47Z</time>
      </trkpt>
      <trkpt lat="43.44832" lon="6.60188">
        <ele>177.69</ele>
        <time>2019-08-20T06:50:05Z</time>
      </trkpt>
      <trkpt lat="43.44832" lon="6.60188">
        <ele>185.75</ele>
        <time>2019-08-20T06:50:08Z</time>
      </trkpt>
      <trkpt lat="43.44832" lon="6.60189">
        <ele>185.76</ele>
        <time>2019-08-20T06:50:09Z</time>
      </trkpt>
      <trkpt lat="43.44839" lon="6.60195">
        <ele>185.94</ele>
        <time>2019-08-20T06:50:35Z</time>
      </trkpt>
      <trkpt lat="43.44843" lon="6.60193">
        <ele>186.05</ele>
        <time>2019-08-20T06:51:00Z</time>
      </trkpt>
      <trkpt lat="43.44843" lon="6.60196">
        <ele>186.08</ele>
        <time>2019-08-20T06:51:22Z</time>
      </trkpt>
      <trkpt lat="43.44841" lon="6.60201">
        <ele>186.08</ele>
        <time>2019-08-20T06:51:39Z</time>
      </trkpt>
      <trkpt lat="43.4484" lon="6.60204">
        <ele>186.08</ele>
        <time>2019-08-20T06:51:56Z</time>
      </trkpt>
      <trkpt lat="43.4484" lon="6.60209">
        <ele>193.24</ele>
        <time>2019-08-20T06:52:10Z</time>
      </trkpt>
      <trkpt lat="43.4484" lon="6.60209">
        <ele>193.24</ele>
        <time>2019-08-20T06:52:11Z</time>
      </trkpt>
      <trkpt lat="43.4484" lon="6.6022">
        <ele>194.06</ele>
        <time>2019-08-20T06:52:25Z</time>
      </trkpt>
      <trkpt lat="43.44842" lon="6.60221">
        <ele>194.59</ele>
        <time>2019-08-20T06:52:28Z</time>
      </trkpt>
      <trkpt lat="43.44847" lon="6.60224">
        <ele>195.93</ele>
        <time>2019-08-20T06:52:43Z</time>
      </trkpt>
      <trkpt lat="43.44845" lon="6.60226">
        <ele>197.92</ele>
        <time>2019-08-20T06:53:04Z</time>
      </trkpt>
      <trkpt lat="43.44844" lon="6.60237">
        <ele>200.82</ele>
        <time>2019-08-20T06:53:20Z</time>
      </trkpt>
      <trkpt lat="43.44845" lon="6.60244">
        <ele>202.95</ele>
        <time>2019-08-20T06:53:39Z</time>
      </trkpt>
      <trkpt lat="43.44847" lon="6.60246">
        <ele>204.88</ele>
        <time>2019-08-20T06:53:52Z</time>
      </trkpt>
      <trkpt lat="43.44849" lon="6.60253">
        <ele>206.5</ele>
        <time>2019-08-20T06:54:07Z</time>
      </trkpt>
      <trkpt lat="43.44845" lon="6.60253">
        <ele>208.38</ele>
        <time>2019-08-20T06:54:23Z</time>
      </trkpt>
      <trkpt lat="43.44846" lon="6.60254">
        <ele>208.54</ele>
        <time>2019-08-20T06:54:45Z</time>
      </trkpt>
      <trkpt lat="43.44845" lon="6.60256">
        <ele>208.45</ele>
        <time>2019-08-20T06:55:09Z</time>
      </trkpt>
      <trkpt lat="43.44847" lon="6.60256">
        <ele>208.4</ele>
        <time>2019-08-20T06:55:32Z</time>
      </trkpt>
      <trkpt lat="43.44847" lon="6.60255">
        <ele>208.47</ele>
        <time>2019-08-20T06:55:54Z</time>
      </trkpt>
      <trkpt lat="43.44849" lon="6.60254">
        <ele>208.49</ele>
        <time>2019-08-20T06:56:18Z</time>
      </trkpt>
      <trkpt lat="43.44847" lon="6.60254">
        <ele>208.49</ele>
        <time>2019-08-20T06:56:43Z</time>
      </trkpt>
      <trkpt lat="43.44847" lon="6.60255">
        <ele>208.49</ele>
        <time>2019-08-20T06:56:58Z</time>
      </trkpt>
      <trkpt lat="43.44846" lon="6.60254">
        <ele>208.49</ele>
        <time>2019-08-20T06:57:21Z</time>
      </trkpt>
      <trkpt lat="43.44846" lon="6.60255">
        <ele>208.49</ele>
        <time>2019-08-20T06:57:45Z</time>
      </trkpt>
      <trkpt lat="43.44848" lon="6.60257">
        <ele>208.49</ele>
        <time>2019-08-20T06:57:57Z</time>
      </trkpt>
      <trkpt lat="43.44843" lon="6.6026">
        <ele>208.49</ele>
        <time>2019-08-20T06:58:15Z</time>
      </trkpt>
      <trkpt lat="43.44843" lon="6.60261">
        <ele>211.93</ele>
        <time>2019-08-20T06:58:16Z</time>
      </trkpt>
      <trkpt lat="43.44843" lon="6.60261">
        <ele>211.9</ele>
        <time>2019-08-20T06:58:17Z</time>
      </trkpt>
      <trkpt lat="43.44843" lon="6.6027">
        <ele>213.43</ele>
        <time>2019-08-20T06:58:33Z</time>
      </trkpt>
      <trkpt lat="43.4484" lon="6.60273">
        <ele>215.02</ele>
        <time>2019-08-20T06:58:49Z</time>
      </trkpt>
      <trkpt lat="43.44839" lon="6.60275">
        <ele>216.25</ele>
        <time>2019-08-20T06:59:05Z</time>
      </trkpt>
      <trkpt lat="43.44837" lon="6.60283">
        <ele>217.9</ele>
        <time>2019-08-20T06:59:17Z</time>
      </trkpt>
      <trkpt lat="43.44835" lon="6.60284">
        <ele>219.75</ele>
        <time>2019-08-20T06:59:34Z</time>
      </trkpt>
      <trkpt lat="43.44834" lon="6.60293">
        <ele>221.83</ele>
        <time>2019-08-20T06:59:50Z</time>
      </trkpt>
      <trkpt lat="43.44834" lon="6.60298">
        <ele>224.23</ele>
        <time>2019-08-20T07:00:08Z</time>
      </trkpt>
      <trkpt lat="43.44832" lon="6.60304">
        <ele>226.25</ele>
        <time>2019-08-20T07:00:22Z</time>
      </trkpt>
      <trkpt lat="43.44835" lon="6.60304">
        <ele>226.28</ele>
        <time>2019-08-20T07:00:43Z</time>
      </trkpt>
      <trkpt lat="43.44838" lon="6.60306">
        <ele>226.19</ele>
        <time>2019-08-20T07:01:06Z</time>
      </trkpt>
      <trkpt lat="43.44838" lon="6.60308">
        <ele>225.98</ele>
        <time>2019-08-20T07:01:28Z</time>
      </trkpt>
      <trkpt lat="43.44838" lon="6.6031">
        <ele>225.98</ele>
        <time>2019-08-20T07:01:47Z</time>
      </trkpt>
      <trkpt lat="43.44836" lon="6.60313">
        <ele>225.98</ele>
        <time>2019-08-20T07:02:03Z</time>
      </trkpt>
      <trkpt lat="43.44837" lon="6.60314">
        <ele>225.98</ele>
        <time>2019-08-20T07:02:18Z</time>
      </trkpt>
      <trkpt lat="43.44837" lon="6.60314">
        <ele>232.1</ele>
        <time>2019-08-20T07:02:20Z</time>
      </trkpt>
      <trkpt lat="43.44837" lon="6.60314">
        <ele>232.18</ele>
        <time>2019-08-20T07:02:21Z</time>
      </trkpt>
      <trkpt lat="43.44835" lon="6.60318">
        <ele>233.82</ele>
        <time>2019-08-20T07:02:39Z</time>
      </trkpt>
      <trkpt lat="43.44835" lon="6.60322">
        <ele>234.97</ele>
        <time>2019-08-20T07:02:56Z</time>
      </trkpt>
      <trkpt lat="43.44837" lon="6.60327">
        <ele>236.38</ele>
        <time>2019-08-20T07:03:13Z</time>
      </trkpt>
      <trkpt lat="43.44838" lon="6.60327">
        <ele>237.88</ele>
        <time>2019-08-20T07:03:38Z</time>
      </trkpt>
      <trkpt lat="43.44839" lon="6.6033">
        <ele>237.98</ele>
        <time>2019-08-20T07:03:53Z</time>
      </trkpt>
      <trkpt lat="43.44841" lon="6.60331">
        <ele>239.14</ele>
        <time>2019-08-20T07:04:11Z</time>
      </trkpt>
      <trkpt lat="43.44841" lon="6.60333">
        <ele>239.36</ele>
        <time>2019-08-20T07:04:33Z</time>
      </trkpt>
      <trkpt lat="43.44843" lon="6.60338">
        <ele>242.15</ele>
        <time>2019-08-20T07:04:50Z</time>
      </trkpt>
      <trkpt lat="43.44848" lon="6.60338">
        <ele>243.76</ele>
        <time>2019-08-20T07:05:06Z</time>
      </trkpt>
      <trkpt lat="43.44849" lon="6.60338">
        <ele>245.7</ele>
        <time>2019-08-20T07:05:28Z</time>
      </trkpt>
      <trkpt lat="43.4485" lon="6.6034">
        <ele>246.88</ele>
        <time>2019-08-20T07:05:46Z</time>
      </trkpt>
      <trkpt lat="43.44852" lon="6.60345">
        <ele>249.81</ele>
        <time>2019-08-20T07:06:05Z</time>
      </trkpt>
      <trkpt lat="43.44851" lon="6.60349">
        <ele>251.91</ele>
        <time>2019-08-20T07:06:22Z</time>
      </trkpt>
      <trkpt lat="43.44855" lon="6.6035">
        <ele>253.22</ele>
        <time>2019-08-20T07:06:43Z</time>
      </trkpt>
      <trkpt lat="43.44855" lon="6.60351">
        <ele>253.8</ele>
        <time>2019-08-20T07:06:52Z</time>
      </trkpt>
      <trkpt lat="43.44856" lon="6.60358">
        <ele>256.61</ele>
        <time>2019-08-20T07:07:13Z</time>
      </trkpt>
      <trkpt lat="43.44857" lon="6.60363">
        <ele>259.01</ele>
        <time>2019-08-20T07:07:29Z</time>
      </trkpt>
      <trkpt lat="43.44856" lon="6.60366">
        <ele>260.67</ele>
        <time>2019-08-20T07:07:48Z</time>
      </trkpt>
      <trkpt lat="43.44858" lon="6.6037">
        <ele>262.44</ele>
        <time>2019-08-20T07:08:06Z</time>
      </trkpt>
      <trkpt lat="43.4486" lon="6.60375">
        <ele>262.39</ele>
        <time>2019-08-20T07:08:24Z</time>
      </trkpt>
      <trkpt lat="43.44857" lon="6.60379">
        <ele>262.35</ele>
        <time>2019-08-20T07:08:59Z</time>
      </trkpt>
      <trkpt lat="43.44862" lon="6.6038">
        <ele>262.36</ele>
        <time>2019-08-20T07:09:24Z</time>
      </trkpt>
      <trkpt lat="43.44862" lon="6.60374">
        <ele>262.44</ele>
        <time>2019-08-20T07:09:52Z</time>
      </trkpt>
      <trkpt lat="43.44863" lon="6.60375">
        <ele>262.44</ele>
        <time>2019-08-20T07:10:09Z</time>
      </trkpt>
      <trkpt lat="43.44866" lon="6.60376">
        <ele>267.55</ele>
        <time>2019-08-20T07:10:28Z</time>
      </trkpt>
      <trkpt lat="43.44866" lon="6.60377">
        <ele>267.55</ele>
        <time>2019-08-20T07:10:29Z</time>
      </trkpt>
      <trkpt lat="43.44866" lon="6.60386">
        <ele>268.7</ele>
        <time>2019-08-20T07:10:44Z</time>
      </trkpt>
      <trkpt lat="43.44866" lon="6.60389">
        <ele>270.45</ele>
        <time>2019-08-20T07:10:55Z</time>
      </trkpt>
      <trkpt lat="43.44866" lon="6.60391">
        <ele>272.16</ele>
        <time>2019-08-20T07:11:13Z</time>
      </trkpt>
      <trkpt lat="43.44869" lon="6.60396">
        <ele>273.57</ele>
        <time>2019-08-20T07:11:26Z</time>
      </trkpt>
      <trkpt lat="43.44869" lon="6.60401">
        <ele>275.69</ele>
        <time>2019-08-20T07:11:40Z</time>
      </trkpt>
      <trkpt lat="43.44874" lon="6.60404">
        <ele>277.71</ele>
        <time>2019-08-20T07:11:56Z</time>
      </trkpt>
      <trkpt lat="43.44877" lon="6.60407">
        <ele>280.07</ele>
        <time>2019-08-20T07:12:15Z</time>
      </trkpt>
      <trkpt lat="43.44881" lon="6.60408">
        <ele>281.54</ele>
        <time>2019-08-20T07:12:28Z</time>
      </trkpt>
      <trkpt lat="43.44883" lon="6.60405">
        <ele>283.42</ele>
        <time>2019-08-20T07:12:45Z</time>
      </trkpt>
      <trkpt lat="43.44884" lon="6.60403">
        <ele>284.9</ele>
        <time>2019-08-20T07:12:59Z</time>
      </trkpt>
      <trkpt lat="43.44886" lon="6.60396">
        <ele>285.6</ele>
        <time>2019-08-20T07:13:16Z</time>
      </trkpt>
      <trkpt lat="43.44887" lon="6.6039">
        <ele>285.4</ele>
        <time>2019-08-20T07:13:40Z</time>
      </trkpt>
      <trkpt lat="43.44889" lon="6.60385">
        <ele>285.39</ele>
        <time>2019-08-20T07:13:58Z</time>
      </trkpt>
      <trkpt lat="43.4489" lon="6.60383">
        <ele>285.89</ele>
        <time>2019-08-20T07:14:14Z</time>
      </trkpt>
      <trkpt lat="43.44893" lon="6.60385">
        <ele>287.4</ele>
        <time>2019-08-20T07:14:32Z</time>
      </trkpt>
      <trkpt lat="43.44891" lon="6.60385">
        <ele>288.85</ele>
        <time>2019-08-20T07:15:00Z</time>
      </trkpt>
      <trkpt lat="43.44889" lon="6.60386">
        <ele>288.91</ele>
        <time>2019-08-20T07:15:26Z</time>
      </trkpt>
      <trkpt lat="43.44889" lon="6.60392">
        <ele>290.41</ele>
        <time>2019-08-20T07:15:47Z</time>
      </trkpt>
      <trkpt lat="43.44895" lon="6.60392">
        <ele>292.19</ele>
        <time>2019-08-20T07:16:02Z</time>
      </trkpt>
      <trkpt lat="43.449" lon="6.60389">
        <ele>294.33</ele>
        <time>2019-08-20T07:16:19Z</time>
      </trkpt>
      <trkpt lat="43.44903" lon="6.60391">
        <ele>296.58</ele>
        <time>2019-08-20T07:16:40Z</time>
      </trkpt>
      <trkpt lat="43.44904" lon="6.60396">
        <ele>298.55</ele>
        <time>2019-08-20T07:16:58Z</time>
      </trkpt>
      <trkpt lat="43.44908" lon="6.60394">
        <ele>299.72</ele>
        <time>2019-08-20T07:17:06Z</time>
      </trkpt>
      <trkpt lat="43.44914" lon="6.60391">
        <ele>301.25</ele>
        <time>2019-08-20T07:17:26Z</time>
      </trkpt>
      <trkpt lat="43.44915" lon="6.60394">
        <ele>301.24</ele>
        <time>2019-08-20T07:17:51Z</time>
      </trkpt>
      <trkpt lat="43.44922" lon="6.60392">
        <ele>302.04</ele>
        <time>2019-08-20T07:18:04Z</time>
      </trkpt>
      <trkpt lat="43.44926" lon="6.60389">
        <ele>303.78</ele>
        <time>2019-08-20T07:18:22Z</time>
      </trkpt>
      <trkpt lat="43.44929" lon="6.60388">
        <ele>305.2</ele>
        <time>2019-08-20T07:18:42Z</time>
      </trkpt>
      <trkpt lat="43.44931" lon="6.60387">
        <ele>306.74</ele>
        <time>2019-08-20T07:18:56Z</time>
      </trkpt>
      <trkpt lat="43.44931" lon="6.60386">
        <ele>307.15</ele>
        <time>2019-08-20T07:19:17Z</time>
      </trkpt>
      <trkpt lat="43.4493" lon="6.60385">
        <ele>307.3</ele>
        <time>2019-08-20T07:19:43Z</time>
      </trkpt>
      <trkpt lat="43.4493" lon="6.60386">
        <ele>307.19</ele>
        <time>2019-08-20T07:20:08Z</time>
      </trkpt>
      <trkpt lat="43.44927" lon="6.60391">
        <ele>307.16</ele>
        <time>2019-08-20T07:20:29Z</time>
      </trkpt>
      <trkpt lat="43.44928" lon="6.60391">
        <ele>306.97</ele>
        <time>2019-08-20T07:20:41Z</time>
      </trkpt>
      <trkpt lat="43.44927" lon="6.60393">
        <ele>306.97</ele>
        <time>2019-08-20T07:20:57Z</time>
      </trkpt>
      <trkpt lat="43.44931" lon="6.6039">
        <ele>306.97</ele>
        <time>2019-08-20T07:21:20Z</time>
      </trkpt>
      <trkpt lat="43.44932" lon="6.60389">
        <ele>306.97</ele>
        <time>2019-08-20T07:21:47Z</time>
      </trkpt>
      <trkpt lat="43.44931" lon="6.60388">
        <ele>306.97</ele>
        <time>2019-08-20T07:22:14Z</time>
      </trkpt>
      <trkpt lat="43.44932" lon="6.60387">
        <ele>306.97</ele>
        <time>2019-08-20T07:22:40Z</time>
      </trkpt>
      <trkpt lat="43.4493" lon="6.60388">
        <ele>306.97</ele>
        <time>2019-08-20T07:23:03Z</time>
      </trkpt>
      <trkpt lat="43.44931" lon="6.60389">
        <ele>306.97</ele>
        <time>2019-08-20T07:23:21Z</time>
      </trkpt>
      <trkpt lat="43.44934" lon="6.6039">
        <ele>306.97</ele>
        <time>2019-08-20T07:23:44Z</time>
      </trkpt>
      <trkpt lat="43.44934" lon="6.60389">
        <ele>306.97</ele>
        <time>2019-08-20T07:24:07Z</time>
      </trkpt>
      <trkpt lat="43.44931" lon="6.60389">
        <ele>306.97</ele>
        <time>2019-08-20T07:24:28Z</time>
      </trkpt>
      <trkpt lat="43.44928" lon="6.6039">
        <ele>306.97</ele>
        <time>2019-08-20T07:24:44Z</time>
      </trkpt>
      <trkpt lat="43.44928" lon="6.6039">
        <ele>306.97</ele>
        <time>2019-08-20T07:25:08Z</time>
      </trkpt>
      <trkpt lat="43.44927" lon="6.6039">
        <ele>306.97</ele>
        <time>2019-08-20T07:25:38Z</time>
      </trkpt>
      <trkpt lat="43.44928" lon="6.6039">
        <ele>306.97</ele>
        <time>2019-08-20T07:26:01Z</time>
      </trkpt>
      <trkpt lat="43.4493" lon="6.60389">
        <ele>306.97</ele>
        <time>2019-08-20T07:26:29Z</time>
      </trkpt>
      <trkpt lat="43.44929" lon="6.60392">
        <ele>306.97</ele>
        <time>2019-08-20T07:26:51Z</time>
      </trkpt>
      <trkpt lat="43.44931" lon="6.6039">
        <ele>306.97</ele>
        <time>2019-08-20T07:27:13Z</time>
      </trkpt>
      <trkpt lat="43.44932" lon="6.60389">
        <ele>306.97</ele>
        <time>2019-08-20T07:27:38Z</time>
      </trkpt>
      <trkpt lat="43.44931" lon="6.60388">
        <ele>306.97</ele>
        <time>2019-08-20T07:28:05Z</time>
      </trkpt>
      <trkpt lat="43.44932" lon="6.60389">
        <ele>306.97</ele>
        <time>2019-08-20T07:28:33Z</time>
      </trkpt>
      <trkpt lat="43.44932" lon="6.6039">
        <ele>306.97</ele>
        <time>2019-08-20T07:29:01Z</time>
      </trkpt>
      <trkpt lat="43.44932" lon="6.60389">
        <ele>306.97</ele>
        <time>2019-08-20T07:29:41Z</time>
      </trkpt>
      <trkpt lat="43.44932" lon="6.60389">
        <ele>306.97</ele>
        <time>2019-08-20T07:30:03Z</time>
      </trkpt>
      <trkpt lat="43.44932" lon="6.60386">
        <ele>306.97</ele>
        <time>2019-08-20T07:30:31Z</time>
      </trkpt>
      <trkpt lat="43.44931" lon="6.60388">
        <ele>306.97</ele>
        <time>2019-08-20T07:30:57Z</time>
      </trkpt>
      <trkpt lat="43.44934" lon="6.60388">
        <ele>306.97</ele>
        <time>2019-08-20T07:31:15Z</time>
      </trkpt>
      <trkpt lat="43.44934" lon="6.60388">
        <ele>306.97</ele>
        <time>2019-08-20T07:31:36Z</time>
      </trkpt>
      <trkpt lat="43.44934" lon="6.60387">
        <ele>306.97</ele>
        <time>2019-08-20T07:32:01Z</time>
      </trkpt>
      <trkpt lat="43.44934" lon="6.60388">
        <ele>306.97</ele>
        <time>2019-08-20T07:32:27Z</time>
      </trkpt>
      <trkpt lat="43.44935" lon="6.60388">
        <ele>306.97</ele>
        <time>2019-08-20T07:32:48Z</time>
      </trkpt>
      <trkpt lat="43.44934" lon="6.60388">
        <ele>306.97</ele>
        <time>2019-08-20T07:33:17Z</time>
      </trkpt>
      <trkpt lat="43.44933" lon="6.60389">
        <ele>306.97</ele>
        <time>2019-08-20T07:33:35Z</time>
      </trkpt>
      <trkpt lat="43.44933" lon="6.60389">
        <ele>306.97</ele>
        <time>2019-08-20T07:34:04Z</time>
      </trkpt>
      <trkpt lat="43.44934" lon="6.6039">
        <ele>306.97</ele>
        <time>2019-08-20T07:34:30Z</time>
      </trkpt>
      <trkpt lat="43.44934" lon="6.6039">
        <ele>306.97</ele>
        <time>2019-08-20T07:34:55Z</time>
      </trkpt>
      <trkpt lat="43.44934" lon="6.60391">
        <ele>306.97</ele>
        <time>2019-08-20T07:35:24Z</time>
      </trkpt>
      <trkpt lat="43.44932" lon="6.60391">
        <ele>306.97</ele>
        <time>2019-08-20T07:35:52Z</time>
      </trkpt>
      <trkpt lat="43.44932" lon="6.60391">
        <ele>306.97</ele>
        <time>2019-08-20T07:36:19Z</time>
      </trkpt>
      <trkpt lat="43.44932" lon="6.60389">
        <ele>306.97</ele>
        <time>2019-08-20T07:36:42Z</time>
      </trkpt>
      <trkpt lat="43.44931" lon="6.60387">
        <ele>306.97</ele>
        <time>2019-08-20T07:37:03Z</time>
      </trkpt>
      <trkpt lat="43.44933" lon="6.60386">
        <ele>306.97</ele>
        <time>2019-08-20T07:37:27Z</time>
      </trkpt>
      <trkpt lat="43.44932" lon="6.60387">
        <ele>306.97</ele>
        <time>2019-08-20T07:37:46Z</time>
      </trkpt>
      <trkpt lat="43.44932" lon="6.60389">
        <ele>306.97</ele>
        <time>2019-08-20T07:38:09Z</time>
      </trkpt>
      <trkpt lat="43.44931" lon="6.60389">
        <ele>306.97</ele>
        <time>2019-08-20T07:38:38Z</time>
      </trkpt>
      <trkpt lat="43.4493" lon="6.60388">
        <ele>306.97</ele>
        <time>2019-08-20T07:39:07Z</time>
      </trkpt>
      <trkpt lat="43.44931" lon="6.60386">
        <ele>306.97</ele>
        <time>2019-08-20T07:39:34Z</time>
      </trkpt>
      <trkpt lat="43.44931" lon="6.60386">
        <ele>306.97</ele>
        <time>2019-08-20T07:40:01Z</time>
      </trkpt>
      <trkpt lat="43.44931" lon="6.60388">
        <ele>306.97</ele>
        <time>2019-08-20T07:40:30Z</time>
      </trkpt>
      <trkpt lat="43.44932" lon="6.60388">
        <ele>306.97</ele>
        <time>2019-08-20T07:40:53Z</time>
      </trkpt>
      <trkpt lat="43.44931" lon="6.60389">
        <ele>306.97</ele>
        <time>2019-08-20T07:41:19Z</time>
      </trkpt>
      <trkpt lat="43.44932" lon="6.60389">
        <ele>306.97</ele>
        <time>2019-08-20T07:41:40Z</time>
      </trkpt>
      <trkpt lat="43.44932" lon="6.60388">
        <ele>306.97</ele>
        <time>2019-08-20T07:42:04Z</time>
      </trkpt>
      <trkpt lat="43.44935" lon="6.60388">
        <ele>306.97</ele>
        <time>2019-08-20T07:42:20Z</time>
      </trkpt>
      <trkpt lat="43.44933" lon="6.60389">
        <ele>306.97</ele>
        <time>2019-08-20T07:42:45Z</time>
      </trkpt>
      <trkpt lat="43.44937" lon="6.6039">
        <ele>306.97</ele>
        <time>2019-08-20T07:43:06Z</time>
      </trkpt>
      <trkpt lat="43.44936" lon="6.60393">
        <ele>306.97</ele>
        <time>2019-08-20T07:43:34Z</time>
      </trkpt>
      <trkpt lat="43.44939" lon="6.60391">
        <ele>306.97</ele>
        <time>2019-08-20T07:44:08Z</time>
      </trkpt>
      <trkpt lat="43.44933" lon="6.60392">
        <ele>306.97</ele>
        <time>2019-08-20T07:44:25Z</time>
      </trkpt>
      <trkpt lat="43.44932" lon="6.6039">
        <ele>306.97</ele>
        <time>2019-08-20T07:44:48Z</time>
      </trkpt>
      <trkpt lat="43.44931" lon="6.60388">
        <ele>306.97</ele>
        <time>2019-08-20T07:45:08Z</time>
      </trkpt>
      <trkpt lat="43.44931" lon="6.60388">
        <ele>306.97</ele>
        <time>2019-08-20T07:45:34Z</time>
      </trkpt>
      <trkpt lat="43.4493" lon="6.60387">
        <ele>306.97</ele>
        <time>2019-08-20T07:46:01Z</time>
      </trkpt>
      <trkpt lat="43.44932" lon="6.60388">
        <ele>306.97</ele>
        <time>2019-08-20T07:46:28Z</time>
      </trkpt>
      <trkpt lat="43.44932" lon="6.60388">
        <ele>306.97</ele>
        <time>2019-08-20T07:46:55Z</time>
      </trkpt>
      <trkpt lat="43.4493" lon="6.60387">
        <ele>306.97</ele>
        <time>2019-08-20T07:47:16Z</time>
      </trkpt>
      <trkpt lat="43.44931" lon="6.60388">
        <ele>306.97</ele>
        <time>2019-08-20T07:47:42Z</time>
      </trkpt>
      <trkpt lat="43.4493" lon="6.60389">
        <ele>306.97</ele>
        <time>2019-08-20T07:48:00Z</time>
      </trkpt>
      <trkpt lat="43.44931" lon="6.6039">
        <ele>306.97</ele>
        <time>2019-08-20T07:48:23Z</time>
      </trkpt>
      <trkpt lat="43.4493" lon="6.6039">
        <ele>306.97</ele>
        <time>2019-08-20T07:48:49Z</time>
      </trkpt>
      <trkpt lat="43.4493" lon="6.60388">
        <ele>306.97</ele>
        <time>2019-08-20T07:49:14Z</time>
      </trkpt>
      <trkpt lat="43.44929" lon="6.60388">
        <ele>306.97</ele>
        <time>2019-08-20T07:49:38Z</time>
      </trkpt>
      <trkpt lat="43.44931" lon="6.60388">
        <ele>306.97</ele>
        <time>2019-08-20T07:50:06Z</time>
      </trkpt>
      <trkpt lat="43.44927" lon="6.60389">
        <ele>306.97</ele>
        <time>2019-08-20T07:50:30Z</time>
      </trkpt>
      <trkpt lat="43.44926" lon="6.6039">
        <ele>306.97</ele>
        <time>2019-08-20T07:50:48Z</time>
      </trkpt>
      <trkpt lat="43.44927" lon="6.60388">
        <ele>306.97</ele>
        <time>2019-08-20T07:51:08Z</time>
      </trkpt>
      <trkpt lat="43.44926" lon="6.60387">
        <ele>302.4</ele>
        <time>2019-08-20T07:51:09Z</time>
      </trkpt>
      <trkpt lat="43.44926" lon="6.60387">
        <ele>302.42</ele>
        <time>2019-08-20T07:51:10Z</time>
      </trkpt>
      <trkpt lat="43.44917" lon="6.60391">
        <ele>301.75</ele>
        <time>2019-08-20T07:51:22Z</time>
      </trkpt>
      <trkpt lat="43.44915" lon="6.6039">
        <ele>301.04</ele>
        <time>2019-08-20T07:51:35Z</time>
      </trkpt>
      <trkpt lat="43.44914" lon="6.60388">
        <ele>299.98</ele>
        <time>2019-08-20T07:51:52Z</time>
      </trkpt>
      <trkpt lat="43.44913" lon="6.60386">
        <ele>298.52</ele>
        <time>2019-08-20T07:52:13Z</time>
      </trkpt>
      <trkpt lat="43.4491" lon="6.60383">
        <ele>296.96</ele>
        <time>2019-08-20T07:52:40Z</time>
      </trkpt>
      <trkpt lat="43.44908" lon="6.60381">
        <ele>295.74</ele>
        <time>2019-08-20T07:52:59Z</time>
      </trkpt>
      <trkpt lat="43.44907" lon="6.6038">
        <ele>294.36</ele>
        <time>2019-08-20T07:53:20Z</time>
      </trkpt>
      <trkpt lat="43.44906" lon="6.60382">
        <ele>293.21</ele>
        <time>2019-08-20T07:53:40Z</time>
      </trkpt>
      <trkpt lat="43.44904" lon="6.60379">
        <ele>291.58</ele>
        <time>2019-08-20T07:54:00Z</time>
      </trkpt>
      <trkpt lat="43.44903" lon="6.60377">
        <ele>290.31</ele>
        <time>2019-08-20T07:54:19Z</time>
      </trkpt>
      <trkpt lat="43.44901" lon="6.60373">
        <ele>289.19</ele>
        <time>2019-08-20T07:54:36Z</time>
      </trkpt>
      <trkpt lat="43.44895" lon="6.60371">
        <ele>287.36</ele>
        <time>2019-08-20T07:54:56Z</time>
      </trkpt>
      <trkpt lat="43.44894" lon="6.60371">
        <ele>287.22</ele>
        <time>2019-08-20T07:54:58Z</time>
      </trkpt>
      <trkpt lat="43.44887" lon="6.60372">
        <ele>286.11</ele>
        <time>2019-08-20T07:55:14Z</time>
      </trkpt>
      <trkpt lat="43.44884" lon="6.60372">
        <ele>285.15</ele>
        <time>2019-08-20T07:55:28Z</time>
      </trkpt>
      <trkpt lat="43.44883" lon="6.60373">
        <ele>283.58</ele>
        <time>2019-08-20T07:55:49Z</time>
      </trkpt>
      <trkpt lat="43.4488" lon="6.60374">
        <ele>282.95</ele>
        <time>2019-08-20T07:56:02Z</time>
      </trkpt>
      <trkpt lat="43.44877" lon="6.60372">
        <ele>281.28</ele>
        <time>2019-08-20T07:56:16Z</time>
      </trkpt>
      <trkpt lat="43.44875" lon="6.60373">
        <ele>279.67</ele>
        <time>2019-08-20T07:56:29Z</time>
      </trkpt>
      <trkpt lat="43.44873" lon="6.60374">
        <ele>277.84</ele>
        <time>2019-08-20T07:56:49Z</time>
      </trkpt>
      <trkpt lat="43.44872" lon="6.60371">
        <ele>276.3</ele>
        <time>2019-08-20T07:57:04Z</time>
      </trkpt>
      <trkpt lat="43.44876" lon="6.60368">
        <ele>274.49</ele>
        <time>2019-08-20T07:57:30Z</time>
      </trkpt>
      <trkpt lat="43.44876" lon="6.60366">
        <ele>272.96</ele>
        <time>2019-08-20T07:57:47Z</time>
      </trkpt>
      <trkpt lat="43.44876" lon="6.60366">
        <ele>270.76</ele>
        <time>2019-08-20T07:58:01Z</time>
      </trkpt>
      <trkpt lat="43.44872" lon="6.60363">
        <ele>269.05</ele>
        <time>2019-08-20T07:58:17Z</time>
      </trkpt>
      <trkpt lat="43.44869" lon="6.60358">
        <ele>267.21</ele>
        <time>2019-08-20T07:58:31Z</time>
      </trkpt>
      <trkpt lat="43.44866" lon="6.60353">
        <ele>265.54</ele>
        <time>2019-08-20T07:58:50Z</time>
      </trkpt>
      <trkpt lat="43.44864" lon="6.60349">
        <ele>262.85</ele>
        <time>2019-08-20T07:59:08Z</time>
      </trkpt>
      <trkpt lat="43.44862" lon="6.60344">
        <ele>260.82</ele>
        <time>2019-08-20T07:59:24Z</time>
      </trkpt>
      <trkpt lat="43.44862" lon="6.60337">
        <ele>257.8</ele>
        <time>2019-08-20T07:59:40Z</time>
      </trkpt>
      <trkpt lat="43.44859" lon="6.60334">
        <ele>255.42</ele>
        <time>2019-08-20T07:59:58Z</time>
      </trkpt>
      <trkpt lat="43.44862" lon="6.60332">
        <ele>253.12</ele>
        <time>2019-08-20T08:00:14Z</time>
      </trkpt>
      <trkpt lat="43.44861" lon="6.60328">
        <ele>251.49</ele>
        <time>2019-08-20T08:00:30Z</time>
      </trkpt>
      <trkpt lat="43.44859" lon="6.60327">
        <ele>249.8</ele>
        <time>2019-08-20T08:00:45Z</time>
      </trkpt>
      <trkpt lat="43.44858" lon="6.60327">
        <ele>247.86</ele>
        <time>2019-08-20T08:00:59Z</time>
      </trkpt>
      <trkpt lat="43.44853" lon="6.60321">
        <ele>245.49</ele>
        <time>2019-08-20T08:01:13Z</time>
      </trkpt>
      <trkpt lat="43.44849" lon="6.60317">
        <ele>243.13</ele>
        <time>2019-08-20T08:01:29Z</time>
      </trkpt>
      <trkpt lat="43.4485" lon="6.60316">
        <ele>241.03</ele>
        <time>2019-08-20T08:01:47Z</time>
      </trkpt>
      <trkpt lat="43.44847" lon="6.60316">
        <ele>239.32</ele>
        <time>2019-08-20T08:02:05Z</time>
      </trkpt>
      <trkpt lat="43.44844" lon="6.60314">
        <ele>237.21</ele>
        <time>2019-08-20T08:02:23Z</time>
      </trkpt>
      <trkpt lat="43.44842" lon="6.60311">
        <ele>235.73</ele>
        <time>2019-08-20T08:02:38Z</time>
      </trkpt>
      <trkpt lat="43.44841" lon="6.60311">
        <ele>234.62</ele>
        <time>2019-08-20T08:03:07Z</time>
      </trkpt>
      <trkpt lat="43.44848" lon="6.60305">
        <ele>232.36</ele>
        <time>2019-08-20T08:03:28Z</time>
      </trkpt>
      <trkpt lat="43.44844" lon="6.60301">
        <ele>230.4</ele>
        <time>2019-08-20T08:03:44Z</time>
      </trkpt>
      <trkpt lat="43.44841" lon="6.60298">
        <ele>229.27</ele>
        <time>2019-08-20T08:03:59Z</time>
      </trkpt>
      <trkpt lat="43.44842" lon="6.60294">
        <ele>226.81</ele>
        <time>2019-08-20T08:04:16Z</time>
      </trkpt>
      <trkpt lat="43.44841" lon="6.60285">
        <ele>224.68</ele>
        <time>2019-08-20T08:04:32Z</time>
      </trkpt>
      <trkpt lat="43.44843" lon="6.60281">
        <ele>222.03</ele>
        <time>2019-08-20T08:04:45Z</time>
      </trkpt>
      <trkpt lat="43.44842" lon="6.60274">
        <ele>219.61</ele>
        <time>2019-08-20T08:04:59Z</time>
      </trkpt>
      <trkpt lat="43.44844" lon="6.60271">
        <ele>217.17</ele>
        <time>2019-08-20T08:05:14Z</time>
      </trkpt>
      <trkpt lat="43.44845" lon="6.60258">
        <ele>214.91</ele>
        <time>2019-08-20T08:05:27Z</time>
      </trkpt>
      <trkpt lat="43.44847" lon="6.60259">
        <ele>213.34</ele>
        <time>2019-08-20T08:05:39Z</time>
      </trkpt>
      <trkpt lat="43.44845" lon="6.60264">
        <ele>213.21</ele>
        <time>2019-08-20T08:05:57Z</time>
      </trkpt>
      <trkpt lat="43.44844" lon="6.60264">
        <ele>213.3</ele>
        <time>2019-08-20T08:06:19Z</time>
      </trkpt>
      <trkpt lat="43.44844" lon="6.60268">
        <ele>213.12</ele>
        <time>2019-08-20T08:06:44Z</time>
      </trkpt>
      <trkpt lat="43.44844" lon="6.60263">
        <ele>213.12</ele>
        <time>2019-08-20T08:07:03Z</time>
      </trkpt>
      <trkpt lat="43.44847" lon="6.60265">
        <ele>213.12</ele>
        <time>2019-08-20T08:07:24Z</time>
      </trkpt>
      <trkpt lat="43.44849" lon="6.60265">
        <ele>213.12</ele>
        <time>2019-08-20T08:07:47Z</time>
      </trkpt>
      <trkpt lat="43.44848" lon="6.60267">
        <ele>213.12</ele>
        <time>2019-08-20T08:08:10Z</time>
      </trkpt>
      <trkpt lat="43.44847" lon="6.60266">
        <ele>213.12</ele>
        <time>2019-08-20T08:08:31Z</time>
      </trkpt>
      <trkpt lat="43.44848" lon="6.60267">
        <ele>213.12</ele>
        <time>2019-08-20T08:08:51Z</time>
      </trkpt>
      <trkpt lat="43.4485" lon="6.60269">
        <ele>213.12</ele>
        <time>2019-08-20T08:09:14Z</time>
      </trkpt>
      <trkpt lat="43.4485" lon="6.60268">
        <ele>213.12</ele>
        <time>2019-08-20T08:09:34Z</time>
      </trkpt>
      <trkpt lat="43.44849" lon="6.60267">
        <ele>213.12</ele>
        <time>2019-08-20T08:09:51Z</time>
      </trkpt>
      <trkpt lat="43.44852" lon="6.60269">
        <ele>213.12</ele>
        <time>2019-08-20T08:10:13Z</time>
      </trkpt>
      <trkpt lat="43.44854" lon="6.60268">
        <ele>213.12</ele>
        <time>2019-08-20T08:10:33Z</time>
      </trkpt>
      <trkpt lat="43.44851" lon="6.60268">
        <ele>213.12</ele>
        <time>2019-08-20T08:10:54Z</time>
      </trkpt>
      <trkpt lat="43.44847" lon="6.60265">
        <ele>213.12</ele>
        <time>2019-08-20T08:11:14Z</time>
      </trkpt>
      <trkpt lat="43.44849" lon="6.60267">
        <ele>213.12</ele>
        <time>2019-08-20T08:11:34Z</time>
      </trkpt>
      <trkpt lat="43.44851" lon="6.60264">
        <ele>213.12</ele>
        <time>2019-08-20T08:11:54Z</time>
      </trkpt>
      <trkpt lat="43.44853" lon="6.60258">
        <ele>213.12</ele>
        <time>2019-08-20T08:12:08Z</time>
      </trkpt>
      <trkpt lat="43.44854" lon="6.60253">
        <ele>213.12</ele>
        <time>2019-08-20T08:12:23Z</time>
      </trkpt>
      <trkpt lat="43.44856" lon="6.60244">
        <ele>213.12</ele>
        <time>2019-08-20T08:12:38Z</time>
      </trkpt>
      <trkpt lat="43.44857" lon="6.60244">
        <ele>205.65</ele>
        <time>2019-08-20T08:12:40Z</time>
      </trkpt>
      <trkpt lat="43.44857" lon="6.60243">
        <ele>205.62</ele>
        <time>2019-08-20T08:12:41Z</time>
      </trkpt>
      <trkpt lat="43.44855" lon="6.60238">
        <ele>204.37</ele>
        <time>2019-08-20T08:12:57Z</time>
      </trkpt>
      <trkpt lat="43.44853" lon="6.60229">
        <ele>201.29</ele>
        <time>2019-08-20T08:13:15Z</time>
      </trkpt>
      <trkpt lat="43.44851" lon="6.60223">
        <ele>198.56</ele>
        <time>2019-08-20T08:13:33Z</time>
      </trkpt>
      <trkpt lat="43.44851" lon="6.60216">
        <ele>195.91</ele>
        <time>2019-08-20T08:13:49Z</time>
      </trkpt>
      <trkpt lat="43.44852" lon="6.60212">
        <ele>193.39</ele>
        <time>2019-08-20T08:14:06Z</time>
      </trkpt>
      <trkpt lat="43.44848" lon="6.60204">
        <ele>191.26</ele>
        <time>2019-08-20T08:14:20Z</time>
      </trkpt>
      <trkpt lat="43.44845" lon="6.60201">
        <ele>189.49</ele>
        <time>2019-08-20T08:14:37Z</time>
      </trkpt>
      <trkpt lat="43.44845" lon="6.60199">
        <ele>187.48</ele>
        <time>2019-08-20T08:14:50Z</time>
      </trkpt>
      <trkpt lat="43.44844" lon="6.60195">
        <ele>185.28</ele>
        <time>2019-08-20T08:15:08Z</time>
      </trkpt>
      <trkpt lat="43.44838" lon="6.60186">
        <ele>183.09</ele>
        <time>2019-08-20T08:15:26Z</time>
      </trkpt>
      <trkpt lat="43.44835" lon="6.60181">
        <ele>181.03</ele>
        <time>2019-08-20T08:15:43Z</time>
      </trkpt>
      <trkpt lat="43.44834" lon="6.60174">
        <ele>179.08</ele>
        <time>2019-08-20T08:15:55Z</time>
      </trkpt>
      <trkpt lat="43.44833" lon="6.60166">
        <ele>176.76</ele>
        <time>2019-08-20T08:16:10Z</time>
      </trkpt>
      <trkpt lat="43.44825" lon="6.60158">
        <ele>174.99</ele>
        <time>2019-08-20T08:16:24Z</time>
      </trkpt>
      <trkpt lat="43.44824" lon="6.60154">
        <ele>173.71</ele>
        <time>2019-08-20T08:16:41Z</time>
      </trkpt>
      <trkpt lat="43.44825" lon="6.6015">
        <ele>172.38</ele>
        <time>2019-08-20T08:16:52Z</time>
      </trkpt>
      <trkpt lat="43.44823" lon="6.60145">
        <ele>169.84</ele>
        <time>2019-08-20T08:17:08Z</time>
      </trkpt>
      <trkpt lat="43.44821" lon="6.60138">
        <ele>167.62</ele>
        <time>2019-08-20T08:17:21Z</time>
      </trkpt>
      <trkpt lat="43.44817" lon="6.60129">
        <ele>165.43</ele>
        <time>2019-08-20T08:17:36Z</time>
      </trkpt>
      <trkpt lat="43.44815" lon="6.60122">
        <ele>163.49</ele>
        <time>2019-08-20T08:17:47Z</time>
      </trkpt>
      <trkpt lat="43.44813" lon="6.60113">
        <ele>161.77</ele>
        <time>2019-08-20T08:17:59Z</time>
      </trkpt>
      <trkpt lat="43.44807" lon="6.60106">
        <ele>160.08</ele>
        <time>2019-08-20T08:18:10Z</time>
      </trkpt>
      <trkpt lat="43.44799" lon="6.60101">
        <ele>157.22</ele>
        <time>2019-08-20T08:18:24Z</time>
      </trkpt>
      <trkpt lat="43.44793" lon="6.601">
        <ele>156.01</ele>
        <time>2019-08-20T08:18:32Z</time>
      </trkpt>
      <trkpt lat="43.44785" lon="6.60094">
        <ele>153.54</ele>
        <time>2019-08-20T08:18:50Z</time>
      </trkpt>
      <trkpt lat="43.44779" lon="6.60087">
        <ele>151.57</ele>
        <time>2019-08-20T08:19:05Z</time>
      </trkpt>
      <trkpt lat="43.44771" lon="6.60081">
        <ele>149.67</ele>
        <time>2019-08-20T08:19:19Z</time>
      </trkpt>
      <trkpt lat="43.44763" lon="6.60077">
        <ele>148.94</ele>
        <time>2019-08-20T08:19:27Z</time>
      </trkpt>
      <trkpt lat="43.44756" lon="6.60076">
        <ele>147.45</ele>
        <time>2019-08-20T08:19:40Z</time>
      </trkpt>
      <trkpt lat="43.44747" lon="6.6007">
        <ele>144.68</ele>
        <time>2019-08-20T08:19:59Z</time>
      </trkpt>
      <trkpt lat="43.44735" lon="6.60064">
        <ele>142.75</ele>
        <time>2019-08-20T08:20:14Z</time>
      </trkpt>
      <trkpt lat="43.44725" lon="6.60066">
        <ele>140.61</ele>
        <time>2019-08-20T08:20:30Z</time>
      </trkpt>
      <trkpt lat="43.44715" lon="6.60072">
        <ele>138.6</ele>
        <time>2019-08-20T08:20:45Z</time>
      </trkpt>
      <trkpt lat="43.44702" lon="6.6008">
        <ele>138.06</ele>
        <time>2019-08-20T08:21:01Z</time>
      </trkpt>
      <trkpt lat="43.44687" lon="6.60094">
        <ele>138.56</ele>
        <time>2019-08-20T08:21:20Z</time>
      </trkpt>
      <trkpt lat="43.44675" lon="6.60111">
        <ele>137.59</ele>
        <time>2019-08-20T08:21:36Z</time>
      </trkpt>
      <trkpt lat="43.44666" lon="6.6011">
        <ele>137.55</ele>
        <time>2019-08-20T08:21:50Z</time>
      </trkpt>
      <trkpt lat="43.44658" lon="6.60102">
        <ele>135.62</ele>
        <time>2019-08-20T08:22:04Z</time>
      </trkpt>
      <trkpt lat="43.44649" lon="6.60093">
        <ele>133.63</ele>
        <time>2019-08-20T08:22:19Z</time>
      </trkpt>
      <trkpt lat="43.44645" lon="6.60077">
        <ele>132.17</ele>
        <time>2019-08-20T08:22:35Z</time>
      </trkpt>
      <trkpt lat="43.44644" lon="6.60063">
        <ele>130.72</ele>
        <time>2019-08-20T08:22:45Z</time>
      </trkpt>
      <trkpt lat="43.44646" lon="6.6005">
        <ele>129.62</ele>
        <time>2019-08-20T08:22:55Z</time>
      </trkpt>
      <trkpt lat="43.44649" lon="6.60033">
        <ele>128.45</ele>
        <time>2019-08-20T08:23:08Z</time>
      </trkpt>
      <trkpt lat="43.44649" lon="6.60005">
        <ele>127.37</ele>
        <time>2019-08-20T08:23:25Z</time>
      </trkpt>
      <trkpt lat="43.44651" lon="6.59979">
        <ele>126.33</ele>
        <time>2019-08-20T08:23:42Z</time>
      </trkpt>
      <trkpt lat="43.44655" lon="6.59958">
        <ele>125.31</ele>
        <time>2019-08-20T08:23:59Z</time>
      </trkpt>
      <trkpt lat="43.44661" lon="6.59943">
        <ele>124.5</ele>
        <time>2019-08-20T08:24:12Z</time>
      </trkpt>
      <trkpt lat="43.44663" lon="6.59939">
        <ele>124.41</ele>
        <time>2019-08-20T08:24:15Z</time>
      </trkpt>
      <trkpt lat="43.44668" lon="6.59929">
        <ele>123.7</ele>
        <time>2019-08-20T08:24:25Z</time>
      </trkpt>
      <trkpt lat="43.44677" lon="6.59918">
        <ele>122.45</ele>
        <time>2019-08-20T08:24:38Z</time>
      </trkpt>
      <trkpt lat="43.44688" lon="6.59911">
        <ele>122.2</ele>
        <time>2019-08-20T08:24:50Z</time>
      </trkpt>
      <trkpt lat="43.4471" lon="6.59898">
        <ele>122.6</ele>
        <time>2019-08-20T08:25:09Z</time>
      </trkpt>
      <trkpt lat="43.44714" lon="6.5988">
        <ele>121.29</ele>
        <time>2019-08-20T08:25:24Z</time>
      </trkpt>
      <trkpt lat="43.4471" lon="6.59858">
        <ele>120.01</ele>
        <time>2019-08-20T08:25:36Z</time>
      </trkpt>
      <trkpt lat="43.44715" lon="6.59841">
        <ele>118.68</ele>
        <time>2019-08-20T08:25:50Z</time>
      </trkpt>
      <trkpt lat="43.44726" lon="6.5983">
        <ele>117.85</ele>
        <time>2019-08-20T08:26:04Z</time>
      </trkpt>
      <trkpt lat="43.44727" lon="6.59826">
        <ele>117.65</ele>
        <time>2019-08-20T08:26:24Z</time>
      </trkpt>
      <trkpt lat="43.44725" lon="6.59827">
        <ele>117.57</ele>
        <time>2019-08-20T08:26:43Z</time>
      </trkpt>
      <trkpt lat="43.44728" lon="6.59829">
        <ele>117.7</ele>
        <time>2019-08-20T08:27:02Z</time>
      </trkpt>
      <trkpt lat="43.44729" lon="6.59831">
        <ele>117.76</ele>
        <time>2019-08-20T08:27:20Z</time>
      </trkpt>
      <trkpt lat="43.44729" lon="6.59829">
        <ele>117.76</ele>
        <time>2019-08-20T08:27:32Z</time>
      </trkpt>
      <trkpt lat="43.44726" lon="6.59825">
        <ele>117.76</ele>
        <time>2019-08-20T08:28:00Z</time>
      </trkpt>
      <trkpt lat="43.44722" lon="6.5982">
        <ele>117.76</ele>
        <time>2019-08-20T08:28:24Z</time>
      </trkpt>
      <trkpt lat="43.44725" lon="6.59825">
        <ele>117.76</ele>
        <time>2019-08-20T08:28:44Z</time>
      </trkpt>
      <trkpt lat="43.44725" lon="6.5982">
        <ele>117.76</ele>
        <time>2019-08-20T08:29:04Z</time>
      </trkpt>
      <trkpt lat="43.44729" lon="6.59826">
        <ele>117.76</ele>
        <time>2019-08-20T08:29:21Z</time>
      </trkpt>
      <trkpt lat="43.44724" lon="6.59822">
        <ele>117.76</ele>
        <time>2019-08-20T08:29:42Z</time>
      </trkpt>
      <trkpt lat="43.44728" lon="6.5982">
        <ele>117.76</ele>
        <time>2019-08-20T08:30:05Z</time>
      </trkpt>
      <trkpt lat="43.44728" lon="6.59821">
        <ele>117.76</ele>
        <time>2019-08-20T08:30:24Z</time>
      </trkpt>
      <trkpt lat="43.44727" lon="6.5982">
        <ele>117.76</ele>
        <time>2019-08-20T08:30:45Z</time>
      </trkpt>
      <trkpt lat="43.44719" lon="6.59809">
        <ele>117.76</ele>
        <time>2019-08-20T08:30:58Z</time>
      </trkpt>
      <trkpt lat="43.44715" lon="6.598">
        <ele>116.57</ele>
        <time>2019-08-20T08:31:09Z</time>
      </trkpt>
      <trkpt lat="43.44705" lon="6.59785">
        <ele>115.57</ele>
        <time>2019-08-20T08:31:23Z</time>
      </trkpt>
      <trkpt lat="43.44693" lon="6.59782">
        <ele>114.07</ele>
        <time>2019-08-20T08:31:36Z</time>
      </trkpt>
      <trkpt lat="43.44676" lon="6.59789">
        <ele>112.88</ele>
        <time>2019-08-20T08:31:49Z</time>
      </trkpt>
      <trkpt lat="43.44663" lon="6.598">
        <ele>112.11</ele>
        <time>2019-08-20T08:32:02Z</time>
      </trkpt>
      <trkpt lat="43.44648" lon="6.59812">
        <ele>111.66</ele>
        <time>2019-08-20T08:32:16Z</time>
      </trkpt>
      <trkpt lat="43.44643" lon="6.59814">
        <ele>112.64</ele>
        <time>2019-08-20T08:32:23Z</time>
      </trkpt>
      <trkpt lat="43.44631" lon="6.59818">
        <ele>114.04</ele>
        <time>2019-08-20T08:32:35Z</time>
      </trkpt>
      <trkpt lat="43.44624" lon="6.59819">
        <ele>113.69</ele>
        <time>2019-08-20T08:32:41Z</time>
      </trkpt>
      <trkpt lat="43.44609" lon="6.59826">
        <ele>112.22</ele>
        <time>2019-08-20T08:32:54Z</time>
      </trkpt>
      <trkpt lat="43.44596" lon="6.59826">
        <ele>110.99</ele>
        <time>2019-08-20T08:33:06Z</time>
      </trkpt>
      <trkpt lat="43.44585" lon="6.59821">
        <ele>109.34</ele>
        <time>2019-08-20T08:33:17Z</time>
      </trkpt>
      <trkpt lat="43.44574" lon="6.59816">
        <ele>107.53</ele>
        <time>2019-08-20T08:33:30Z</time>
      </trkpt>
      <trkpt lat="43.44567" lon="6.59812">
        <ele>105.7</ele>
        <time>2019-08-20T08:33:45Z</time>
      </trkpt>
      <trkpt lat="43.44557" lon="6.59813">
        <ele>102.61</ele>
        <time>2019-08-20T08:34:02Z</time>
      </trkpt>
      <trkpt lat="43.44548" lon="6.59813">
        <ele>100.52</ele>
        <time>2019-08-20T08:34:15Z</time>
      </trkpt>
      <trkpt lat="43.4453" lon="6.59819">
        <ele>98.94</ele>
        <time>2019-08-20T08:34:32Z</time>
      </trkpt>
      <trkpt lat="43.44514" lon="6.59828">
        <ele>98.42</ele>
        <time>2019-08-20T08:34:47Z</time>
      </trkpt>
      <trkpt lat="43.44501" lon="6.59831">
        <ele>97.36</ele>
        <time>2019-08-20T08:35:00Z</time>
      </trkpt>
      <trkpt lat="43.44487" lon="6.59831">
        <ele>95.99</ele>
        <time>2019-08-20T08:35:11Z</time>
      </trkpt>
      <trkpt lat="43.44473" lon="6.5983">
        <ele>94.26</ele>
        <time>2019-08-20T08:35:24Z</time>
      </trkpt>
      <trkpt lat="43.4446" lon="6.59829">
        <ele>92.86</ele>
        <time>2019-08-20T08:35:37Z</time>
      </trkpt>
      <trkpt lat="43.4445" lon="6.59839">
        <ele>90.23</ele>
        <time>2019-08-20T08:35:52Z</time>
      </trkpt>
      <trkpt lat="43.44447" lon="6.59858">
        <ele>89.81</ele>
        <time>2019-08-20T08:36:06Z</time>
      </trkpt>
      <trkpt lat="43.44446" lon="6.59866">
        <ele>89.21</ele>
        <time>2019-08-20T08:36:11Z</time>
      </trkpt>
      <trkpt lat="43.44443" lon="6.59879">
        <ele>88.37</ele>
        <time>2019-08-20T08:36:20Z</time>
      </trkpt>
      <trkpt lat="43.44432" lon="6.59897">
        <ele>87.64</ele>
        <time>2019-08-20T08:36:35Z</time>
      </trkpt>
      <trkpt lat="43.44429" lon="6.59909">
        <ele>87.34</ele>
        <time>2019-08-20T08:36:44Z</time>
      </trkpt>
      <trkpt lat="43.44424" lon="6.59929">
        <ele>86.99</ele>
        <time>2019-08-20T08:36:58Z</time>
      </trkpt>
      <trkpt lat="43.44421" lon="6.59933">
        <ele>86.71</ele>
        <time>2019-08-20T08:37:02Z</time>
      </trkpt>
      <trkpt lat="43.44408" lon="6.59952">
        <ele>86.18</ele>
        <time>2019-08-20T08:37:17Z</time>
      </trkpt>
      <trkpt lat="43.44402" lon="6.59962">
        <ele>86.05</ele>
        <time>2019-08-20T08:37:26Z</time>
      </trkpt>
      <trkpt lat="43.44388" lon="6.59968">
        <ele>83.83</ele>
        <time>2019-08-20T08:37:41Z</time>
      </trkpt>
      <trkpt lat="43.44387" lon="6.59983">
        <ele>82.45</ele>
        <time>2019-08-20T08:37:53Z</time>
      </trkpt>
      <trkpt lat="43.44383" lon="6.59996">
        <ele>81.09</ele>
        <time>2019-08-20T08:38:08Z</time>
      </trkpt>
      <trkpt lat="43.44375" lon="6.60005">
        <ele>77.97</ele>
        <time>2019-08-20T08:38:24Z</time>
      </trkpt>
      <trkpt lat="43.44371" lon="6.60024">
        <ele>75.92</ele>
        <time>2019-08-20T08:38:40Z</time>
      </trkpt>
      <trkpt lat="43.44372" lon="6.60043">
        <ele>73.89</ele>
        <time>2019-08-20T08:38:56Z</time>
      </trkpt>
      <trkpt lat="43.4437" lon="6.6006">
        <ele>72.32</ele>
        <time>2019-08-20T08:39:10Z</time>
      </trkpt>
      <trkpt lat="43.44369" lon="6.60075">
        <ele>71.93</ele>
        <time>2019-08-20T08:39:23Z</time>
      </trkpt>
      <trkpt lat="43.44363" lon="6.60092">
        <ele>70.31</ele>
        <time>2019-08-20T08:39:38Z</time>
      </trkpt>
      <trkpt lat="43.44356" lon="6.60106">
        <ele>69.34</ele>
        <time>2019-08-20T08:39:50Z</time>
      </trkpt>
      <trkpt lat="43.44344" lon="6.60117">
        <ele>68.19</ele>
        <time>2019-08-20T08:40:03Z</time>
      </trkpt>
      <trkpt lat="43.44335" lon="6.60125">
        <ele>68.75</ele>
        <time>2019-08-20T08:40:15Z</time>
      </trkpt>
      <trkpt lat="43.44325" lon="6.60135">
        <ele>70.31</ele>
        <time>2019-08-20T08:40:29Z</time>
      </trkpt>
      <trkpt lat="43.44317" lon="6.6014">
        <ele>69.57</ele>
        <time>2019-08-20T08:40:42Z</time>
      </trkpt>
      <trkpt lat="43.44303" lon="6.60142">
        <ele>66.73</ele>
        <time>2019-08-20T08:40:58Z</time>
      </trkpt>
      <trkpt lat="43.44289" lon="6.60149">
        <ele>64.4</ele>
        <time>2019-08-20T08:41:13Z</time>
      </trkpt>
      <trkpt lat="43.44282" lon="6.60156">
        <ele>63.6</ele>
        <time>2019-08-20T08:41:20Z</time>
      </trkpt>
      <trkpt lat="43.44278" lon="6.60159">
        <ele>63.16</ele>
        <time>2019-08-20T08:41:23Z</time>
      </trkpt>
      <trkpt lat="43.44268" lon="6.60172">
        <ele>62.35</ele>
        <time>2019-08-20T08:41:36Z</time>
      </trkpt>
      <trkpt lat="43.44267" lon="6.60176">
        <ele>62.23</ele>
        <time>2019-08-20T08:41:39Z</time>
      </trkpt>
      <trkpt lat="43.44262" lon="6.60197">
        <ele>60.11</ele>
        <time>2019-08-20T08:41:54Z</time>
      </trkpt>
      <trkpt lat="43.44259" lon="6.60215">
        <ele>59.1</ele>
        <time>2019-08-20T08:42:09Z</time>
      </trkpt>
      <trkpt lat="43.44253" lon="6.60234">
        <ele>57</ele>
        <time>2019-08-20T08:42:23Z</time>
      </trkpt>
      <trkpt lat="43.44248" lon="6.60252">
        <ele>55.1</ele>
        <time>2019-08-20T08:42:37Z</time>
      </trkpt>
      <trkpt lat="43.44243" lon="6.60269">
        <ele>53.16</ele>
        <time>2019-08-20T08:42:52Z</time>
      </trkpt>
      <trkpt lat="43.44239" lon="6.60288">
        <ele>51.89</ele>
        <time>2019-08-20T08:43:06Z</time>
      </trkpt>
      <trkpt lat="43.44236" lon="6.60307">
        <ele>50.82</ele>
        <time>2019-08-20T08:43:21Z</time>
      </trkpt>
      <trkpt lat="43.44237" lon="6.60331">
        <ele>49.85</ele>
        <time>2019-08-20T08:43:36Z</time>
      </trkpt>
      <trkpt lat="43.44231" lon="6.60353">
        <ele>48.99</ele>
        <time>2019-08-20T08:43:54Z</time>
      </trkpt>
      <trkpt lat="43.44221" lon="6.60377">
        <ele>48.01</ele>
        <time>2019-08-20T08:44:11Z</time>
      </trkpt>
      <trkpt lat="43.44211" lon="6.60394">
        <ele>47.52</ele>
        <time>2019-08-20T08:44:26Z</time>
      </trkpt>
      <trkpt lat="43.44205" lon="6.60411">
        <ele>46.08</ele>
        <time>2019-08-20T08:44:39Z</time>
      </trkpt>
      <trkpt lat="43.44207" lon="6.60427">
        <ele>44.74</ele>
        <time>2019-08-20T08:44:53Z</time>
      </trkpt>
      <trkpt lat="43.44209" lon="6.60444">
        <ele>43.35</ele>
        <time>2019-08-20T08:45:06Z</time>
      </trkpt>
      <trkpt lat="43.4421" lon="6.60455">
        <ele>42.41</ele>
        <time>2019-08-20T08:45:13Z</time>
      </trkpt>
      <trkpt lat="43.44211" lon="6.60479">
        <ele>41.88</ele>
        <time>2019-08-20T08:45:28Z</time>
      </trkpt>
      <trkpt lat="43.44209" lon="6.60495">
        <ele>39.89</ele>
        <time>2019-08-20T08:45:42Z</time>
      </trkpt>
      <trkpt lat="43.4421" lon="6.60515">
        <ele>38.63</ele>
        <time>2019-08-20T08:45:58Z</time>
      </trkpt>
      <trkpt lat="43.44208" lon="6.60542">
        <ele>38.12</ele>
        <time>2019-08-20T08:46:14Z</time>
      </trkpt>
      <trkpt lat="43.44205" lon="6.60565">
        <ele>36.4</ele>
        <time>2019-08-20T08:46:31Z</time>
      </trkpt>
      <trkpt lat="43.44198" lon="6.60586">
        <ele>35.71</ele>
        <time>2019-08-20T08:46:47Z</time>
      </trkpt>
      <trkpt lat="43.44191" lon="6.60611">
        <ele>35.3</ele>
        <time>2019-08-20T08:47:04Z</time>
      </trkpt>
      <trkpt lat="43.44187" lon="6.60629">
        <ele>34.5</ele>
        <time>2019-08-20T08:47:20Z</time>
      </trkpt>
      <trkpt lat="43.44182" lon="6.60652">
        <ele>33.93</ele>
        <time>2019-08-20T08:47:35Z</time>
      </trkpt>
      <trkpt lat="43.44178" lon="6.60672">
        <ele>34.22</ele>
        <time>2019-08-20T08:47:46Z</time>
      </trkpt>
      <trkpt lat="43.44173" lon="6.60693">
        <ele>34.2</ele>
        <time>2019-08-20T08:48:00Z</time>
      </trkpt>
      <trkpt lat="43.44172" lon="6.60697">
        <ele>34.21</ele>
        <time>2019-08-20T08:48:02Z</time>
      </trkpt>
      <trkpt lat="43.44173" lon="6.60722">
        <ele>34.05</ele>
        <time>2019-08-20T08:48:15Z</time>
      </trkpt>
      <trkpt lat="43.44174" lon="6.60745">
        <ele>34.15</ele>
        <time>2019-08-20T08:48:29Z</time>
      </trkpt>
      <trkpt lat="43.44173" lon="6.60751">
        <ele>34.22</ele>
        <time>2019-08-20T08:48:33Z</time>
      </trkpt>
      <trkpt lat="43.44169" lon="6.60779">
        <ele>34.27</ele>
        <time>2019-08-20T08:48:48Z</time>
      </trkpt>
      <trkpt lat="43.4417" lon="6.60804">
        <ele>34.42</ele>
        <time>2019-08-20T08:49:02Z</time>
      </trkpt>
      <trkpt lat="43.44177" lon="6.60821">
        <ele>34.56</ele>
        <time>2019-08-20T08:49:15Z</time>
      </trkpt>
      <trkpt lat="43.44191" lon="6.60837">
        <ele>35.14</ele>
        <time>2019-08-20T08:49:31Z</time>
      </trkpt>
      <trkpt lat="43.44197" lon="6.60844">
        <ele>35.56</ele>
        <time>2019-08-20T08:49:37Z</time>
      </trkpt>
      <trkpt lat="43.44217" lon="6.60862">
        <ele>34.37</ele>
        <time>2019-08-20T08:49:55Z</time>
      </trkpt>
      <trkpt lat="43.44222" lon="6.60865">
        <ele>34.09</ele>
        <time>2019-08-20T08:50:00Z</time>
      </trkpt>
      <trkpt lat="43.44235" lon="6.6088">
        <ele>34.36</ele>
        <time>2019-08-20T08:50:13Z</time>
      </trkpt>
      <trkpt lat="43.44244" lon="6.60894">
        <ele>34.67</ele>
        <time>2019-08-20T08:50:25Z</time>
      </trkpt>
      <trkpt lat="43.44256" lon="6.60922">
        <ele>36.26</ele>
        <time>2019-08-20T08:50:45Z</time>
      </trkpt>
      <trkpt lat="43.44258" lon="6.60935">
        <ele>36.79</ele>
        <time>2019-08-20T08:50:54Z</time>
      </trkpt>
      <trkpt lat="43.44262" lon="6.60959">
        <ele>36.52</ele>
        <time>2019-08-20T08:51:09Z</time>
      </trkpt>
      <trkpt lat="43.44264" lon="6.60989">
        <ele>35.87</ele>
        <time>2019-08-20T08:51:27Z</time>
      </trkpt>
      <trkpt lat="43.44263" lon="6.60991">
        <ele>35.5</ele>
        <time>2019-08-20T08:51:43Z</time>
      </trkpt>
      <trkpt lat="43.44264" lon="6.60989">
        <ele>35.5</ele>
        <time>2019-08-20T08:52:07Z</time>
      </trkpt>
      <trkpt lat="43.44265" lon="6.60992">
        <ele>35.5</ele>
        <time>2019-08-20T08:52:30Z</time>
      </trkpt>
      <trkpt lat="43.44265" lon="6.60994">
        <ele>35.5</ele>
        <time>2019-08-20T08:52:49Z</time>
      </trkpt>
      <trkpt lat="43.44264" lon="6.60996">
        <ele>35.5</ele>
        <time>2019-08-20T08:53:13Z</time>
      </trkpt>
      <trkpt lat="43.44262" lon="6.6099">
        <ele>35.5</ele>
        <time>2019-08-20T08:53:34Z</time>
      </trkpt>
      <trkpt lat="43.44262" lon="6.60989">
        <ele>35.5</ele>
        <time>2019-08-20T08:53:38Z</time>
      </trkpt>
      <trkpt lat="43.44262" lon="6.60987">
        <ele>35.66</ele>
        <time>2019-08-20T08:53:58Z</time>
      </trkpt>
      <trkpt lat="43.44266" lon="6.60989">
        <ele>35.53</ele>
        <time>2019-08-20T08:54:23Z</time>
      </trkpt>
      <trkpt lat="43.44264" lon="6.60994">
        <ele>35.4</ele>
        <time>2019-08-20T08:54:48Z</time>
      </trkpt>
      <trkpt lat="43.44263" lon="6.60995">
        <ele>35.4</ele>
        <time>2019-08-20T08:55:08Z</time>
      </trkpt>
      <trkpt lat="43.44261" lon="6.60993">
        <ele>35.4</ele>
        <time>2019-08-20T08:55:34Z</time>
      </trkpt>
      <trkpt lat="43.44263" lon="6.60991">
        <ele>35.4</ele>
        <time>2019-08-20T08:55:56Z</time>
      </trkpt>
      <trkpt lat="43.44259" lon="6.60989">
        <ele>35.4</ele>
        <time>2019-08-20T08:56:16Z</time>
      </trkpt>
      <trkpt lat="43.44256" lon="6.60986">
        <ele>35.4</ele>
        <time>2019-08-20T08:56:38Z</time>
      </trkpt>
      <trkpt lat="43.44259" lon="6.60993">
        <ele>35.54</ele>
        <time>2019-08-20T08:57:00Z</time>
      </trkpt>
      <trkpt lat="43.44262" lon="6.60991">
        <ele>35.68</ele>
        <time>2019-08-20T08:57:20Z</time>
      </trkpt>
      <trkpt lat="43.44264" lon="6.60993">
        <ele>35.76</ele>
        <time>2019-08-20T08:57:41Z</time>
      </trkpt>
      <trkpt lat="43.44263" lon="6.60993">
        <ele>35.68</ele>
        <time>2019-08-20T08:58:02Z</time>
      </trkpt>
      <trkpt lat="43.44264" lon="6.60998">
        <ele>35.68</ele>
        <time>2019-08-20T08:58:26Z</time>
      </trkpt>
      <trkpt lat="43.44263" lon="6.60995">
        <ele>35.68</ele>
        <time>2019-08-20T08:58:50Z</time>
      </trkpt>
      <trkpt lat="43.44265" lon="6.60993">
        <ele>35.68</ele>
        <time>2019-08-20T08:59:13Z</time>
      </trkpt>
      <trkpt lat="43.44265" lon="6.60993">
        <ele>35.68</ele>
        <time>2019-08-20T08:59:14Z</time>
      </trkpt>
      <trkpt lat="43.44265" lon="6.60995">
        <ele>35.63</ele>
        <time>2019-08-20T08:59:38Z</time>
      </trkpt>
      <trkpt lat="43.44265" lon="6.60994">
        <ele>35.5</ele>
        <time>2019-08-20T08:59:59Z</time>
      </trkpt>
      <trkpt lat="43.44267" lon="6.60994">
        <ele>35.74</ele>
        <time>2019-08-20T09:00:23Z</time>
      </trkpt>
      <trkpt lat="43.44262" lon="6.60993">
        <ele>35.74</ele>
        <time>2019-08-20T09:00:49Z</time>
      </trkpt>
      <trkpt lat="43.44262" lon="6.60993">
        <ele>35.74</ele>
        <time>2019-08-20T09:01:14Z</time>
      </trkpt>
      <trkpt lat="43.44261" lon="6.60993">
        <ele>35.74</ele>
        <time>2019-08-20T09:01:36Z</time>
      </trkpt>
      <trkpt lat="43.44263" lon="6.60996">
        <ele>35.74</ele>
        <time>2019-08-20T09:02:01Z</time>
      </trkpt>
      <trkpt lat="43.44268" lon="6.60991">
        <ele>35.74</ele>
        <time>2019-08-20T09:02:24Z</time>
      </trkpt>
      <trkpt lat="43.44266" lon="6.60994">
        <ele>35.74</ele>
        <time>2019-08-20T09:02:49Z</time>
      </trkpt>
      <trkpt lat="43.44273" lon="6.61">
        <ele>35.74</ele>
        <time>2019-08-20T09:03:09Z</time>
      </trkpt>
      <trkpt lat="43.44275" lon="6.61003">
        <ele>35.74</ele>
        <time>2019-08-20T09:03:11Z</time>
      </trkpt>
      <trkpt lat="43.4428" lon="6.61015">
        <ele>34.65</ele>
        <time>2019-08-20T09:03:21Z</time>
      </trkpt>
      <trkpt lat="43.44288" lon="6.6104">
        <ele>32.93</ele>
        <time>2019-08-20T09:03:38Z</time>
      </trkpt>
      <trkpt lat="43.44293" lon="6.61058">
        <ele>31.89</ele>
        <time>2019-08-20T09:03:51Z</time>
      </trkpt>
      <trkpt lat="43.44302" lon="6.61073">
        <ele>30.64</ele>
        <time>2019-08-20T09:04:07Z</time>
      </trkpt>
      <trkpt lat="43.44315" lon="6.61091">
        <ele>29.55</ele>
        <time>2019-08-20T09:04:23Z</time>
      </trkpt>
      <trkpt lat="43.44327" lon="6.61109">
        <ele>28.83</ele>
        <time>2019-08-20T09:04:37Z</time>
      </trkpt>
      <trkpt lat="43.44332" lon="6.6113">
        <ele>28.44</ele>
        <time>2019-08-20T09:04:50Z</time>
      </trkpt>
      <trkpt lat="43.44329" lon="6.61148">
        <ele>27.58</ele>
        <time>2019-08-20T09:05:02Z</time>
      </trkpt>
      <trkpt lat="43.44327" lon="6.61151">
        <ele>27.46</ele>
        <time>2019-08-20T09:05:04Z</time>
      </trkpt>
      <trkpt lat="43.44324" lon="6.61157">
        <ele>27.17</ele>
        <time>2019-08-20T09:05:08Z</time>
      </trkpt>
      <trkpt lat="43.4432" lon="6.61175">
        <ele>26.49</ele>
        <time>2019-08-20T09:05:20Z</time>
      </trkpt>
      <trkpt lat="43.44317" lon="6.6119">
        <ele>25.74</ele>
        <time>2019-08-20T09:05:31Z</time>
      </trkpt>
      <trkpt lat="43.44317" lon="6.61208">
        <ele>24.73</ele>
        <time>2019-08-20T09:05:43Z</time>
      </trkpt>
      <trkpt lat="43.44325" lon="6.61222">
        <ele>24.22</ele>
        <time>2019-08-20T09:05:55Z</time>
      </trkpt>
      <trkpt lat="43.44335" lon="6.61232">
        <ele>23.28</ele>
        <time>2019-08-20T09:06:09Z</time>
      </trkpt>
      <trkpt lat="43.44346" lon="6.61234">
        <ele>22.2</ele>
        <time>2019-08-20T09:06:23Z</time>
      </trkpt>
      <trkpt lat="43.4436" lon="6.61234">
        <ele>20.22</ele>
        <time>2019-08-20T09:06:40Z</time>
      </trkpt>
      <trkpt lat="43.44376" lon="6.61237">
        <ele>19.41</ele>
        <time>2019-08-20T09:06:57Z</time>
      </trkpt>
      <trkpt lat="43.44392" lon="6.61251">
        <ele>18.76</ele>
        <time>2019-08-20T09:07:12Z</time>
      </trkpt>
      <trkpt lat="43.44402" lon="6.61263">
        <ele>17.46</ele>
        <time>2019-08-20T09:07:26Z</time>
      </trkpt>
      <trkpt lat="43.44415" lon="6.61272">
        <ele>16.02</ele>
        <time>2019-08-20T09:07:45Z</time>
      </trkpt>
      <trkpt lat="43.44421" lon="6.61285">
        <ele>15.18</ele>
        <time>2019-08-20T09:07:57Z</time>
      </trkpt>
      <trkpt lat="43.44415" lon="6.61296">
        <ele>13.25</ele>
        <time>2019-08-20T09:08:12Z</time>
      </trkpt>
      <trkpt lat="43.44407" lon="6.61307">
        <ele>11.3</ele>
        <time>2019-08-20T09:08:30Z</time>
      </trkpt>
      <trkpt lat="43.44403" lon="6.61322">
        <ele>10.59</ele>
        <time>2019-08-20T09:08:45Z</time>
      </trkpt>
      <trkpt lat="43.44405" lon="6.61335">
        <ele>9.59</ele>
        <time>2019-08-20T09:08:58Z</time>
      </trkpt>
      <trkpt lat="43.44402" lon="6.61349">
        <ele>7.69</ele>
        <time>2019-08-20T09:09:14Z</time>
      </trkpt>
      <trkpt lat="43.44395" lon="6.61359">
        <ele>7.58</ele>
        <time>2019-08-20T09:09:24Z</time>
      </trkpt>
      <trkpt lat="43.44384" lon="6.61353">
        <ele>6.83</ele>
        <time>2019-08-20T09:09:38Z</time>
      </trkpt>
      <trkpt lat="43.44375" lon="6.61337">
        <ele>5</ele>
        <time>2019-08-20T09:09:57Z</time>
      </trkpt>
      <trkpt lat="43.44371" lon="6.61335">
        <ele>4.6</ele>
        <time>2019-08-20T09:10:00Z</time>
      </trkpt>
      <trkpt lat="43.44364" lon="6.61335">
        <ele>3.92</ele>
        <time>2019-08-20T09:10:05Z</time>
      </trkpt>
      <trkpt lat="43.44355" lon="6.61346">
        <ele>2.76</ele>
        <time>2019-08-20T09:10:17Z</time>
      </trkpt>
      <trkpt lat="43.44349" lon="6.61363">
        <ele>1.82</ele>
        <time>2019-08-20T09:10:29Z</time>
      </trkpt>
      <trkpt lat="43.4435" lon="6.61365">
        <ele>1.77</ele>
        <time>2019-08-20T09:10:30Z</time>
      </trkpt>
      <trkpt lat="43.44357" lon="6.61378">
        <ele>0.7</ele>
        <time>2019-08-20T09:10:43Z</time>
      </trkpt>
      <trkpt lat="43.44359" lon="6.61379">
        <ele>0.34</ele>
        <time>2019-08-20T09:10:45Z</time>
      </trkpt>
      <trkpt lat="43.44371" lon="6.61396">
        <ele>-0.55</ele>
        <time>2019-08-20T09:10:59Z</time>
      </trkpt>
      <trkpt lat="43.44384" lon="6.61403">
        <ele>-1.84</ele>
        <time>2019-08-20T09:11:11Z</time>
      </trkpt>
      <trkpt lat="43.44386" lon="6.61405">
        <ele>-1.95</ele>
        <time>2019-08-20T09:11:13Z</time>
      </trkpt>
      <trkpt lat="43.44399" lon="6.61406">
        <ele>-2.75</ele>
        <time>2019-08-20T09:11:25Z</time>
      </trkpt>
      <trkpt lat="43.44411" lon="6.61412">
        <ele>-3.63</ele>
        <time>2019-08-20T09:11:40Z</time>
      </trkpt>
      <trkpt lat="43.44426" lon="6.61422">
        <ele>-4.11</ele>
        <time>2019-08-20T09:11:56Z</time>
      </trkpt>
      <trkpt lat="43.44436" lon="6.61434">
        <ele>-5.54</ele>
        <time>2019-08-20T09:12:12Z</time>
      </trkpt>
      <trkpt lat="43.44437" lon="6.61455">
        <ele>-7.72</ele>
        <time>2019-08-20T09:12:28Z</time>
      </trkpt>
      <trkpt lat="43.44432" lon="6.6147">
        <ele>-9.05</ele>
        <time>2019-08-20T09:12:41Z</time>
      </trkpt>
      <trkpt lat="43.4443" lon="6.61475">
        <ele>-9.45</ele>
        <time>2019-08-20T09:12:45Z</time>
      </trkpt>
      <trkpt lat="43.44423" lon="6.61488">
        <ele>-10.45</ele>
        <time>2019-08-20T09:12:56Z</time>
      </trkpt>
      <trkpt lat="43.4441" lon="6.61501">
        <ele>-11.62</ele>
        <time>2019-08-20T09:13:10Z</time>
      </trkpt>
      <trkpt lat="43.44401" lon="6.61506">
        <ele>-13.02</ele>
        <time>2019-08-20T09:13:21Z</time>
      </trkpt>
      <trkpt lat="43.44391" lon="6.61513">
        <ele>-14.19</ele>
        <time>2019-08-20T09:13:33Z</time>
      </trkpt>
      <trkpt lat="43.44391" lon="6.61514">
        <ele>-14.32</ele>
        <time>2019-08-20T09:13:34Z</time>
      </trkpt>
      <trkpt lat="43.44383" lon="6.61533">
        <ele>-15.99</ele>
        <time>2019-08-20T09:13:47Z</time>
      </trkpt>
      <trkpt lat="43.44381" lon="6.61552">
        <ele>-17.41</ele>
        <time>2019-08-20T09:14:00Z</time>
      </trkpt>
      <trkpt lat="43.4438" lon="6.61567">
        <ele>-19.06</ele>
        <time>2019-08-20T09:14:13Z</time>
      </trkpt>
      <trkpt lat="43.4438" lon="6.61585">
        <ele>-20.64</ele>
        <time>2019-08-20T09:14:28Z</time>
      </trkpt>
      <trkpt lat="43.44376" lon="6.61605">
        <ele>-23.42</ele>
        <time>2019-08-20T09:14:44Z</time>
      </trkpt>
      <trkpt lat="43.44364" lon="6.61619">
        <ele>-25.35</ele>
        <time>2019-08-20T09:15:01Z</time>
      </trkpt>
      <trkpt lat="43.44351" lon="6.61627">
        <ele>-27.28</ele>
        <time>2019-08-20T09:15:15Z</time>
      </trkpt>
      <trkpt lat="43.44345" lon="6.61642">
        <ele>-28.56</ele>
        <time>2019-08-20T09:15:27Z</time>
      </trkpt>
      <trkpt lat="43.44353" lon="6.61656">
        <ele>-30.66</ele>
        <time>2019-08-20T09:15:41Z</time>
      </trkpt>
      <trkpt lat="43.44351" lon="6.61668">
        <ele>-32.46</ele>
        <time>2019-08-20T09:15:54Z</time>
      </trkpt>
      <trkpt lat="43.44351" lon="6.61685">
        <ele>-34.52</ele>
        <time>2019-08-20T09:16:08Z</time>
      </trkpt>
      <trkpt lat="43.44353" lon="6.61703">
        <ele>-36.05</ele>
        <time>2019-08-20T09:16:22Z</time>
      </trkpt>
      <trkpt lat="43.44358" lon="6.61727">
        <ele>-37.01</ele>
        <time>2019-08-20T09:16:40Z</time>
      </trkpt>
      <trkpt lat="43.44363" lon="6.6175">
        <ele>-36.28</ele>
        <time>2019-08-20T09:16:57Z</time>
      </trkpt>
      <trkpt lat="43.44366" lon="6.61771">
        <ele>-36.31</ele>
        <time>2019-08-20T09:17:09Z</time>
      </trkpt>
      <trkpt lat="43.44369" lon="6.61789">
        <ele>-36.17</ele>
        <time>2019-08-20T09:17:21Z</time>
      </trkpt>
      <trkpt lat="43.44369" lon="6.61792">
        <ele>-36.2</ele>
        <time>2019-08-20T09:17:23Z</time>
      </trkpt>
      <trkpt lat="43.44369" lon="6.61796">
        <ele>-36.21</ele>
        <time>2019-08-20T09:17:25Z</time>
      </trkpt>
      <trkpt lat="43.44371" lon="6.61816">
        <ele>-35.97</ele>
        <time>2019-08-20T09:17:37Z</time>
      </trkpt>
      <trkpt lat="43.4437" lon="6.61829">
        <ele>-35.57</ele>
        <time>2019-08-20T09:17:48Z</time>
      </trkpt>
      <trkpt lat="43.44372" lon="6.61838">
        <ele>-35.24</ele>
        <time>2019-08-20T09:17:54Z</time>
      </trkpt>
      <trkpt lat="43.44371" lon="6.61849">
        <ele>-35.78</ele>
        <time>2019-08-20T09:18:00Z</time>
      </trkpt>
      <trkpt lat="43.44371" lon="6.61866">
        <ele>-36.59</ele>
        <time>2019-08-20T09:18:07Z</time>
      </trkpt>
      <trkpt lat="43.44372" lon="6.61879">
        <ele>-36.96</ele>
        <time>2019-08-20T09:18:14Z</time>
      </trkpt>
      <trkpt lat="43.44373" lon="6.61894">
        <ele>-37.22</ele>
        <time>2019-08-20T09:18:25Z</time>
      </trkpt>
      <trkpt lat="43.44372" lon="6.61919">
        <ele>-37.31</ele>
        <time>2019-08-20T09:18:41Z</time>
      </trkpt>
      <trkpt lat="43.44372" lon="6.61928">
        <ele>-37.34</ele>
        <time>2019-08-20T09:18:45Z</time>
      </trkpt>
      <trkpt lat="43.44376" lon="6.61946">
        <ele>-37.45</ele>
        <time>2019-08-20T09:18:57Z</time>
      </trkpt>
      <trkpt lat="43.44381" lon="6.61956">
        <ele>-37.45</ele>
        <time>2019-08-20T09:19:03Z</time>
      </trkpt>
      <trkpt lat="43.44385" lon="6.61962">
        <ele>-37.48</ele>
        <time>2019-08-20T09:19:07Z</time>
      </trkpt>
      <trkpt lat="43.44387" lon="6.61972">
        <ele>-37.5</ele>
        <time>2019-08-20T09:19:12Z</time>
      </trkpt>
      <trkpt lat="43.44394" lon="6.61993">
        <ele>-38.05</ele>
        <time>2019-08-20T09:19:25Z</time>
      </trkpt>
      <trkpt lat="43.44396" lon="6.61998">
        <ele>-38.21</ele>
        <time>2019-08-20T09:19:29Z</time>
      </trkpt>
      <trkpt lat="43.44401" lon="6.62021">
        <ele>-38.68</ele>
        <time>2019-08-20T09:19:41Z</time>
      </trkpt>
      <trkpt lat="43.44401" lon="6.62023">
        <ele>-38.68</ele>
        <time>2019-08-20T09:19:42Z</time>
      </trkpt>
      <trkpt lat="43.44403" lon="6.62026">
        <ele>-38.68</ele>
        <time>2019-08-20T09:19:45Z</time>
      </trkpt>
      <trkpt lat="43.44409" lon="6.62029">
        <ele>-38.4</ele>
        <time>2019-08-20T09:19:52Z</time>
      </trkpt>
      <trkpt lat="43.44418" lon="6.62031">
        <ele>-37.87</ele>
        <time>2019-08-20T09:19:59Z</time>
      </trkpt>
      <trkpt lat="43.44437" lon="6.62027">
        <ele>-37.37</ele>
        <time>2019-08-20T09:20:12Z</time>
      </trkpt>
      <trkpt lat="43.44444" lon="6.6202">
        <ele>-37.39</ele>
        <time>2019-08-20T09:20:22Z</time>
      </trkpt>
      <trkpt lat="43.44442" lon="6.6202">
        <ele>-37.64</ele>
        <time>2019-08-20T09:20:39Z</time>
      </trkpt>
      <trkpt lat="43.44442" lon="6.62016">
        <ele>-37.64</ele>
        <time>2019-08-20T09:21:02Z</time>
      </trkpt>
      <trkpt lat="43.44442" lon="6.62018">
        <ele>-37.64</ele>
        <time>2019-08-20T09:21:27Z</time>
      </trkpt>
      <trkpt lat="43.44442" lon="6.62019">
        <ele>-37.64</ele>
        <time>2019-08-20T09:21:47Z</time>
      </trkpt>
      <trkpt lat="43.44441" lon="6.6202">
        <ele>-37.64</ele>
        <time>2019-08-20T09:22:09Z</time>
      </trkpt>
      <trkpt lat="43.44442" lon="6.62018">
        <ele>-37.64</ele>
        <time>2019-08-20T09:22:19Z</time>
      </trkpt>
    </trkseg>
  </trk>
</gpx>